<?xml version="1.0" encoding="UTF-8" standalone="no" ?>
<gpx xmlns="http://www.topografix.com/GPX/1/1" xmlns:xsi="http://www.w3.org/2001/XMLSchema-instance" xsi:schemaLocation="http://www.topografix.com/GPX/1/1 http://www.topografix.com/GPX/1/1/gpx.xsd" version="1.1" creator="VisuGPX - https://www.visugpx.com">
  <metadata>
    <name>Gringo, Géricault et Limpio</name>
    <desc><![CDATA[Un Gringo égal à lui-même : 7 crottins et on monte en pression si problème, aujourd\'hui c\'est la séparation... par contre super dans les allures !]]></desc>
  </metadata>
  <trk>
    <name><![CDATA[Untitled]]></name>
    <trkseg>
      <trkpt lat="48.70757" lon="1.75786">
        <ele>173.39999389648</ele>
        <time>2013-04-30T09:52:34.000Z</time>
      </trkpt>
      <trkpt lat="48.7075" lon="1.75776">
        <ele>173.60000610352</ele>
        <time>2013-04-30T09:52:41.000Z</time>
      </trkpt>
      <trkpt lat="48.70745" lon="1.75767">
        <ele>173.60000610352</ele>
        <time>2013-04-30T09:52:47.000Z</time>
      </trkpt>
      <trkpt lat="48.70728" lon="1.75756">
        <ele>173.80000305176</ele>
        <time>2013-04-30T09:52:54.000Z</time>
      </trkpt>
      <trkpt lat="48.70724" lon="1.75748">
        <ele>173.80000305176</ele>
        <time>2013-04-30T09:52:59.000Z</time>
      </trkpt>
      <trkpt lat="48.70716" lon="1.75738">
        <ele>173.80000305176</ele>
        <time>2013-04-30T09:53:06.000Z</time>
      </trkpt>
      <trkpt lat="48.70707" lon="1.7573">
        <ele>174</ele>
        <time>2013-04-30T09:53:13.000Z</time>
      </trkpt>
      <trkpt lat="48.70705" lon="1.75727">
        <ele>174</ele>
        <time>2013-04-30T09:53:15.000Z</time>
      </trkpt>
      <trkpt lat="48.70699" lon="1.7572">
        <ele>174</ele>
        <time>2013-04-30T09:53:21.000Z</time>
      </trkpt>
      <trkpt lat="48.70696" lon="1.75717">
        <ele>174</ele>
        <time>2013-04-30T09:53:23.000Z</time>
      </trkpt>
      <trkpt lat="48.70689" lon="1.75714">
        <ele>174.19999694824</ele>
        <time>2013-04-30T09:53:28.000Z</time>
      </trkpt>
      <trkpt lat="48.70682" lon="1.75706">
        <ele>174.19999694824</ele>
        <time>2013-04-30T09:53:33.000Z</time>
      </trkpt>
      <trkpt lat="48.70681" lon="1.75704">
        <ele>174.19999694824</ele>
        <time>2013-04-30T09:53:34.000Z</time>
      </trkpt>
      <trkpt lat="48.70673" lon="1.75697">
        <ele>174.39999389648</ele>
        <time>2013-04-30T09:53:41.000Z</time>
      </trkpt>
      <trkpt lat="48.70666" lon="1.75689">
        <ele>174.60000610352</ele>
        <time>2013-04-30T09:53:47.000Z</time>
      </trkpt>
      <trkpt lat="48.70664" lon="1.75686">
        <ele>175</ele>
        <time>2013-04-30T09:53:49.000Z</time>
      </trkpt>
      <trkpt lat="48.70657" lon="1.75681">
        <ele>175.80000305176</ele>
        <time>2013-04-30T09:53:55.000Z</time>
      </trkpt>
      <trkpt lat="48.70651" lon="1.75674">
        <ele>176.60000610352</ele>
        <time>2013-04-30T09:54:00.000Z</time>
      </trkpt>
      <trkpt lat="48.70647" lon="1.75671">
        <ele>177.19999694824</ele>
        <time>2013-04-30T09:54:03.000Z</time>
      </trkpt>
      <trkpt lat="48.70645" lon="1.75671">
        <ele>177.39999389648</ele>
        <time>2013-04-30T09:54:07.000Z</time>
      </trkpt>
      <trkpt lat="48.70644" lon="1.75671">
        <ele>177.60000610352</ele>
        <time>2013-04-30T09:54:11.000Z</time>
      </trkpt>
      <trkpt lat="48.70642" lon="1.75667">
        <ele>177.80000305176</ele>
        <time>2013-04-30T09:54:58.000Z</time>
      </trkpt>
      <trkpt lat="48.70636" lon="1.7567">
        <ele>178.39999389648</ele>
        <time>2013-04-30T09:55:09.000Z</time>
      </trkpt>
      <trkpt lat="48.70636" lon="1.75664">
        <ele>178.60000610352</ele>
        <time>2013-04-30T09:55:20.000Z</time>
      </trkpt>
      <trkpt lat="48.70635" lon="1.75661">
        <ele>178.60000610352</ele>
        <time>2013-04-30T09:55:24.000Z</time>
      </trkpt>
      <trkpt lat="48.70643" lon="1.7566">
        <ele>177.80000305176</ele>
        <time>2013-04-30T09:57:31.000Z</time>
      </trkpt>
      <trkpt lat="48.70642" lon="1.75658">
        <ele>177.80000305176</ele>
        <time>2013-04-30T09:57:32.000Z</time>
      </trkpt>
      <trkpt lat="48.70637" lon="1.75651">
        <ele>178.39999389648</ele>
        <time>2013-04-30T09:57:39.000Z</time>
      </trkpt>
      <trkpt lat="48.70633" lon="1.75651">
        <ele>178.80000305176</ele>
        <time>2013-04-30T09:57:45.000Z</time>
      </trkpt>
      <trkpt lat="48.70634" lon="1.75651">
        <ele>178.80000305176</ele>
        <time>2013-04-30T09:57:46.000Z</time>
      </trkpt>
      <trkpt lat="48.70627" lon="1.75642">
        <ele>179.39999389648</ele>
        <time>2013-04-30T09:58:07.000Z</time>
      </trkpt>
      <trkpt lat="48.70622" lon="1.75633">
        <ele>179.80000305176</ele>
        <time>2013-04-30T09:58:12.000Z</time>
      </trkpt>
      <trkpt lat="48.7062" lon="1.7563">
        <ele>180</ele>
        <time>2013-04-30T09:58:14.000Z</time>
      </trkpt>
      <trkpt lat="48.70613" lon="1.75619">
        <ele>180.60000610352</ele>
        <time>2013-04-30T09:58:22.000Z</time>
      </trkpt>
      <trkpt lat="48.70609" lon="1.75616">
        <ele>181</ele>
        <time>2013-04-30T09:58:25.000Z</time>
      </trkpt>
      <trkpt lat="48.70598" lon="1.75609">
        <ele>182</ele>
        <time>2013-04-30T09:58:34.000Z</time>
      </trkpt>
      <trkpt lat="48.70593" lon="1.75597">
        <ele>182.19999694824</ele>
        <time>2013-04-30T09:58:40.000Z</time>
      </trkpt>
      <trkpt lat="48.70586" lon="1.75586">
        <ele>182.80000305176</ele>
        <time>2013-04-30T09:58:48.000Z</time>
      </trkpt>
      <trkpt lat="48.70577" lon="1.75578">
        <ele>182.60000610352</ele>
        <time>2013-04-30T09:58:55.000Z</time>
      </trkpt>
      <trkpt lat="48.70567" lon="1.7557">
        <ele>182</ele>
        <time>2013-04-30T09:59:03.000Z</time>
      </trkpt>
      <trkpt lat="48.70559" lon="1.75562">
        <ele>181.60000610352</ele>
        <time>2013-04-30T09:59:09.000Z</time>
      </trkpt>
      <trkpt lat="48.70557" lon="1.75559">
        <ele>181.39999389648</ele>
        <time>2013-04-30T09:59:11.000Z</time>
      </trkpt>
      <trkpt lat="48.70552" lon="1.75555">
        <ele>181.19999694824</ele>
        <time>2013-04-30T09:59:16.000Z</time>
      </trkpt>
      <trkpt lat="48.70543" lon="1.75544">
        <ele>180.80000305176</ele>
        <time>2013-04-30T09:59:24.000Z</time>
      </trkpt>
      <trkpt lat="48.70534" lon="1.75537">
        <ele>180.80000305176</ele>
        <time>2013-04-30T09:59:30.000Z</time>
      </trkpt>
      <trkpt lat="48.70532" lon="1.75535">
        <ele>180.80000305176</ele>
        <time>2013-04-30T09:59:32.000Z</time>
      </trkpt>
      <trkpt lat="48.70523" lon="1.75524">
        <ele>180.60000610352</ele>
        <time>2013-04-30T09:59:41.000Z</time>
      </trkpt>
      <trkpt lat="48.70517" lon="1.75516">
        <ele>180.39999389648</ele>
        <time>2013-04-30T09:59:47.000Z</time>
      </trkpt>
      <trkpt lat="48.70505" lon="1.75503">
        <ele>180.60000610352</ele>
        <time>2013-04-30T09:59:56.000Z</time>
      </trkpt>
      <trkpt lat="48.705" lon="1.75497">
        <ele>180.80000305176</ele>
        <time>2013-04-30T10:00:00.000Z</time>
      </trkpt>
      <trkpt lat="48.70495" lon="1.75491">
        <ele>180.60000610352</ele>
        <time>2013-04-30T10:00:05.000Z</time>
      </trkpt>
      <trkpt lat="48.70494" lon="1.7549">
        <ele>180.60000610352</ele>
        <time>2013-04-30T10:00:06.000Z</time>
      </trkpt>
      <trkpt lat="48.70484" lon="1.75478">
        <ele>180.39999389648</ele>
        <time>2013-04-30T10:00:14.000Z</time>
      </trkpt>
      <trkpt lat="48.70476" lon="1.7547">
        <ele>180.19999694824</ele>
        <time>2013-04-30T10:00:21.000Z</time>
      </trkpt>
      <trkpt lat="48.70467" lon="1.7546">
        <ele>180.19999694824</ele>
        <time>2013-04-30T10:00:29.000Z</time>
      </trkpt>
      <trkpt lat="48.70457" lon="1.75451">
        <ele>180.39999389648</ele>
        <time>2013-04-30T10:00:38.000Z</time>
      </trkpt>
      <trkpt lat="48.70448" lon="1.75444">
        <ele>180.60000610352</ele>
        <time>2013-04-30T10:00:45.000Z</time>
      </trkpt>
      <trkpt lat="48.70439" lon="1.75439">
        <ele>181</ele>
        <time>2013-04-30T10:00:51.000Z</time>
      </trkpt>
      <trkpt lat="48.70429" lon="1.75432">
        <ele>181.39999389648</ele>
        <time>2013-04-30T10:00:58.000Z</time>
      </trkpt>
      <trkpt lat="48.70418" lon="1.75425">
        <ele>182</ele>
        <time>2013-04-30T10:01:07.000Z</time>
      </trkpt>
      <trkpt lat="48.70414" lon="1.75422">
        <ele>182</ele>
        <time>2013-04-30T10:01:11.000Z</time>
      </trkpt>
      <trkpt lat="48.70402" lon="1.75415">
        <ele>181.60000610352</ele>
        <time>2013-04-30T10:01:19.000Z</time>
      </trkpt>
      <trkpt lat="48.70396" lon="1.75412">
        <ele>181.39999389648</ele>
        <time>2013-04-30T10:01:25.000Z</time>
      </trkpt>
      <trkpt lat="48.70388" lon="1.7541">
        <ele>181.39999389648</ele>
        <time>2013-04-30T10:01:31.000Z</time>
      </trkpt>
      <trkpt lat="48.70383" lon="1.75408">
        <ele>181.19999694824</ele>
        <time>2013-04-30T10:01:34.000Z</time>
      </trkpt>
      <trkpt lat="48.70375" lon="1.754">
        <ele>181</ele>
        <time>2013-04-30T10:01:41.000Z</time>
      </trkpt>
      <trkpt lat="48.70363" lon="1.75388">
        <ele>180.80000305176</ele>
        <time>2013-04-30T10:01:50.000Z</time>
      </trkpt>
      <trkpt lat="48.70357" lon="1.75381">
        <ele>180.80000305176</ele>
        <time>2013-04-30T10:01:56.000Z</time>
      </trkpt>
      <trkpt lat="48.70354" lon="1.75375">
        <ele>180.60000610352</ele>
        <time>2013-04-30T10:02:00.000Z</time>
      </trkpt>
      <trkpt lat="48.70345" lon="1.75366">
        <ele>180.60000610352</ele>
        <time>2013-04-30T10:02:07.000Z</time>
      </trkpt>
      <trkpt lat="48.70335" lon="1.75358">
        <ele>180.80000305176</ele>
        <time>2013-04-30T10:02:14.000Z</time>
      </trkpt>
      <trkpt lat="48.70326" lon="1.75351">
        <ele>180.80000305176</ele>
        <time>2013-04-30T10:02:20.000Z</time>
      </trkpt>
      <trkpt lat="48.7032" lon="1.75347">
        <ele>180.60000610352</ele>
        <time>2013-04-30T10:02:25.000Z</time>
      </trkpt>
      <trkpt lat="48.70314" lon="1.7534">
        <ele>180.39999389648</ele>
        <time>2013-04-30T10:02:30.000Z</time>
      </trkpt>
      <trkpt lat="48.70311" lon="1.75324">
        <ele>180.39999389648</ele>
        <time>2013-04-30T10:02:38.000Z</time>
      </trkpt>
      <trkpt lat="48.70304" lon="1.75309">
        <ele>180.39999389648</ele>
        <time>2013-04-30T10:02:46.000Z</time>
      </trkpt>
      <trkpt lat="48.70301" lon="1.75306">
        <ele>180.39999389648</ele>
        <time>2013-04-30T10:02:49.000Z</time>
      </trkpt>
      <trkpt lat="48.703" lon="1.75305">
        <ele>180.39999389648</ele>
        <time>2013-04-30T10:02:53.000Z</time>
      </trkpt>
      <trkpt lat="48.70295" lon="1.75298">
        <ele>180.39999389648</ele>
        <time>2013-04-30T10:03:07.000Z</time>
      </trkpt>
      <trkpt lat="48.70291" lon="1.75293">
        <ele>180.39999389648</ele>
        <time>2013-04-30T10:03:10.000Z</time>
      </trkpt>
      <trkpt lat="48.70284" lon="1.75289">
        <ele>180.19999694824</ele>
        <time>2013-04-30T10:03:15.000Z</time>
      </trkpt>
      <trkpt lat="48.70278" lon="1.75285">
        <ele>180.19999694824</ele>
        <time>2013-04-30T10:03:20.000Z</time>
      </trkpt>
      <trkpt lat="48.70269" lon="1.75278">
        <ele>180</ele>
        <time>2013-04-30T10:03:27.000Z</time>
      </trkpt>
      <trkpt lat="48.70262" lon="1.75271">
        <ele>180</ele>
        <time>2013-04-30T10:03:33.000Z</time>
      </trkpt>
      <trkpt lat="48.70253" lon="1.75261">
        <ele>179.80000305176</ele>
        <time>2013-04-30T10:03:41.000Z</time>
      </trkpt>
      <trkpt lat="48.70247" lon="1.75254">
        <ele>179.80000305176</ele>
        <time>2013-04-30T10:03:47.000Z</time>
      </trkpt>
      <trkpt lat="48.70243" lon="1.75251">
        <ele>179.60000610352</ele>
        <time>2013-04-30T10:03:50.000Z</time>
      </trkpt>
      <trkpt lat="48.70236" lon="1.75249">
        <ele>179.19999694824</ele>
        <time>2013-04-30T10:03:57.000Z</time>
      </trkpt>
      <trkpt lat="48.7023" lon="1.75246">
        <ele>178.80000305176</ele>
        <time>2013-04-30T10:04:02.000Z</time>
      </trkpt>
      <trkpt lat="48.70221" lon="1.75243">
        <ele>178.39999389648</ele>
        <time>2013-04-30T10:04:08.000Z</time>
      </trkpt>
      <trkpt lat="48.70219" lon="1.75243">
        <ele>178.39999389648</ele>
        <time>2013-04-30T10:04:09.000Z</time>
      </trkpt>
      <trkpt lat="48.70211" lon="1.75244">
        <ele>178</ele>
        <time>2013-04-30T10:04:15.000Z</time>
      </trkpt>
      <trkpt lat="48.70201" lon="1.7525">
        <ele>177.60000610352</ele>
        <time>2013-04-30T10:04:23.000Z</time>
      </trkpt>
      <trkpt lat="48.702" lon="1.75251">
        <ele>177.39999389648</ele>
        <time>2013-04-30T10:04:24.000Z</time>
      </trkpt>
      <trkpt lat="48.70192" lon="1.75251">
        <ele>177.19999694824</ele>
        <time>2013-04-30T10:04:30.000Z</time>
      </trkpt>
      <trkpt lat="48.70184" lon="1.75253">
        <ele>176.80000305176</ele>
        <time>2013-04-30T10:04:36.000Z</time>
      </trkpt>
      <trkpt lat="48.70174" lon="1.75259">
        <ele>176.19999694824</ele>
        <time>2013-04-30T10:04:43.000Z</time>
      </trkpt>
      <trkpt lat="48.70167" lon="1.7526">
        <ele>176</ele>
        <time>2013-04-30T10:04:48.000Z</time>
      </trkpt>
      <trkpt lat="48.70161" lon="1.75268">
        <ele>175.80000305176</ele>
        <time>2013-04-30T10:04:55.000Z</time>
      </trkpt>
      <trkpt lat="48.70157" lon="1.75273">
        <ele>175.80000305176</ele>
        <time>2013-04-30T10:05:00.000Z</time>
      </trkpt>
      <trkpt lat="48.70153" lon="1.75275">
        <ele>175.80000305176</ele>
        <time>2013-04-30T10:05:03.000Z</time>
      </trkpt>
      <trkpt lat="48.70143" lon="1.75276">
        <ele>175.60000610352</ele>
        <time>2013-04-30T10:05:10.000Z</time>
      </trkpt>
      <trkpt lat="48.70133" lon="1.75281">
        <ele>175.39999389648</ele>
        <time>2013-04-30T10:05:17.000Z</time>
      </trkpt>
      <trkpt lat="48.70126" lon="1.75283">
        <ele>175.39999389648</ele>
        <time>2013-04-30T10:05:23.000Z</time>
      </trkpt>
      <trkpt lat="48.70119" lon="1.75286">
        <ele>175.19999694824</ele>
        <time>2013-04-30T10:05:29.000Z</time>
      </trkpt>
      <trkpt lat="48.70111" lon="1.75292">
        <ele>174.80000305176</ele>
        <time>2013-04-30T10:05:35.000Z</time>
      </trkpt>
      <trkpt lat="48.70109" lon="1.75294">
        <ele>174.80000305176</ele>
        <time>2013-04-30T10:05:37.000Z</time>
      </trkpt>
      <trkpt lat="48.70097" lon="1.75301">
        <ele>174.39999389648</ele>
        <time>2013-04-30T10:05:45.000Z</time>
      </trkpt>
      <trkpt lat="48.70087" lon="1.75306">
        <ele>174</ele>
        <time>2013-04-30T10:05:53.000Z</time>
      </trkpt>
      <trkpt lat="48.70079" lon="1.75309">
        <ele>173.80000305176</ele>
        <time>2013-04-30T10:05:59.000Z</time>
      </trkpt>
      <trkpt lat="48.70071" lon="1.75312">
        <ele>173.39999389648</ele>
        <time>2013-04-30T10:06:04.000Z</time>
      </trkpt>
      <trkpt lat="48.70063" lon="1.75315">
        <ele>173.19999694824</ele>
        <time>2013-04-30T10:06:11.000Z</time>
      </trkpt>
      <trkpt lat="48.70053" lon="1.75321">
        <ele>173</ele>
        <time>2013-04-30T10:06:18.000Z</time>
      </trkpt>
      <trkpt lat="48.70045" lon="1.75324">
        <ele>172.80000305176</ele>
        <time>2013-04-30T10:06:24.000Z</time>
      </trkpt>
      <trkpt lat="48.70034" lon="1.75329">
        <ele>172.39999389648</ele>
        <time>2013-04-30T10:06:32.000Z</time>
      </trkpt>
      <trkpt lat="48.70025" lon="1.75335">
        <ele>172.19999694824</ele>
        <time>2013-04-30T10:06:39.000Z</time>
      </trkpt>
      <trkpt lat="48.70022" lon="1.75335">
        <ele>172</ele>
        <time>2013-04-30T10:06:42.000Z</time>
      </trkpt>
      <trkpt lat="48.70014" lon="1.75341">
        <ele>171.80000305176</ele>
        <time>2013-04-30T10:06:49.000Z</time>
      </trkpt>
      <trkpt lat="48.70013" lon="1.75342">
        <ele>171.80000305176</ele>
        <time>2013-04-30T10:06:50.000Z</time>
      </trkpt>
      <trkpt lat="48.7" lon="1.75346">
        <ele>171.39999389648</ele>
        <time>2013-04-30T10:07:00.000Z</time>
      </trkpt>
      <trkpt lat="48.69992" lon="1.75347">
        <ele>171.60000610352</ele>
        <time>2013-04-30T10:07:06.000Z</time>
      </trkpt>
      <trkpt lat="48.69983" lon="1.75353">
        <ele>171.60000610352</ele>
        <time>2013-04-30T10:07:12.000Z</time>
      </trkpt>
      <trkpt lat="48.69981" lon="1.75354">
        <ele>171.39999389648</ele>
        <time>2013-04-30T10:07:13.000Z</time>
      </trkpt>
      <trkpt lat="48.69969" lon="1.7536">
        <ele>171.60000610352</ele>
        <time>2013-04-30T10:07:21.000Z</time>
      </trkpt>
      <trkpt lat="48.69961" lon="1.75365">
        <ele>171.60000610352</ele>
        <time>2013-04-30T10:07:27.000Z</time>
      </trkpt>
      <trkpt lat="48.69956" lon="1.75369">
        <ele>171.60000610352</ele>
        <time>2013-04-30T10:07:32.000Z</time>
      </trkpt>
      <trkpt lat="48.6995" lon="1.75371">
        <ele>171.60000610352</ele>
        <time>2013-04-30T10:07:36.000Z</time>
      </trkpt>
      <trkpt lat="48.69945" lon="1.75374">
        <ele>171.80000305176</ele>
        <time>2013-04-30T10:07:40.000Z</time>
      </trkpt>
      <trkpt lat="48.69936" lon="1.75377">
        <ele>172</ele>
        <time>2013-04-30T10:07:47.000Z</time>
      </trkpt>
      <trkpt lat="48.69926" lon="1.75381">
        <ele>172</ele>
        <time>2013-04-30T10:07:54.000Z</time>
      </trkpt>
      <trkpt lat="48.69923" lon="1.75384">
        <ele>172.19999694824</ele>
        <time>2013-04-30T10:07:59.000Z</time>
      </trkpt>
      <trkpt lat="48.69919" lon="1.75388">
        <ele>172.19999694824</ele>
        <time>2013-04-30T10:08:07.000Z</time>
      </trkpt>
      <trkpt lat="48.69902" lon="1.75394">
        <ele>171.80000305176</ele>
        <time>2013-04-30T10:08:12.000Z</time>
      </trkpt>
      <trkpt lat="48.69891" lon="1.75395">
        <ele>171.60000610352</ele>
        <time>2013-04-30T10:08:18.000Z</time>
      </trkpt>
      <trkpt lat="48.69879" lon="1.75399">
        <ele>171.39999389648</ele>
        <time>2013-04-30T10:08:23.000Z</time>
      </trkpt>
      <trkpt lat="48.6986" lon="1.7541">
        <ele>170.60000610352</ele>
        <time>2013-04-30T10:08:29.000Z</time>
      </trkpt>
      <trkpt lat="48.69837" lon="1.75422">
        <ele>169.80000305176</ele>
        <time>2013-04-30T10:08:35.000Z</time>
      </trkpt>
      <trkpt lat="48.69817" lon="1.75432">
        <ele>168.80000305176</ele>
        <time>2013-04-30T10:08:40.000Z</time>
      </trkpt>
      <trkpt lat="48.69801" lon="1.75441">
        <ele>167.80000305176</ele>
        <time>2013-04-30T10:08:44.000Z</time>
      </trkpt>
      <trkpt lat="48.69778" lon="1.7545">
        <ele>166.39999389648</ele>
        <time>2013-04-30T10:08:50.000Z</time>
      </trkpt>
      <trkpt lat="48.69755" lon="1.75461">
        <ele>165</ele>
        <time>2013-04-30T10:08:56.000Z</time>
      </trkpt>
      <trkpt lat="48.69733" lon="1.75473">
        <ele>163.39999389648</ele>
        <time>2013-04-30T10:09:01.000Z</time>
      </trkpt>
      <trkpt lat="48.69715" lon="1.75481">
        <ele>162</ele>
        <time>2013-04-30T10:09:05.000Z</time>
      </trkpt>
      <trkpt lat="48.69685" lon="1.75494">
        <ele>160</ele>
        <time>2013-04-30T10:09:12.000Z</time>
      </trkpt>
      <trkpt lat="48.69662" lon="1.75504">
        <ele>158.60000610352</ele>
        <time>2013-04-30T10:09:18.000Z</time>
      </trkpt>
      <trkpt lat="48.69658" lon="1.75506">
        <ele>158.60000610352</ele>
        <time>2013-04-30T10:09:19.000Z</time>
      </trkpt>
      <trkpt lat="48.69622" lon="1.75523">
        <ele>157.19999694824</ele>
        <time>2013-04-30T10:09:29.000Z</time>
      </trkpt>
      <trkpt lat="48.69599" lon="1.75534">
        <ele>156.39999389648</ele>
        <time>2013-04-30T10:09:35.000Z</time>
      </trkpt>
      <trkpt lat="48.69573" lon="1.75545">
        <ele>155.80000305176</ele>
        <time>2013-04-30T10:09:42.000Z</time>
      </trkpt>
      <trkpt lat="48.69547" lon="1.75556">
        <ele>155.60000610352</ele>
        <time>2013-04-30T10:09:49.000Z</time>
      </trkpt>
      <trkpt lat="48.69521" lon="1.75568">
        <ele>155.60000610352</ele>
        <time>2013-04-30T10:09:56.000Z</time>
      </trkpt>
      <trkpt lat="48.69498" lon="1.75579">
        <ele>155.80000305176</ele>
        <time>2013-04-30T10:10:02.000Z</time>
      </trkpt>
      <trkpt lat="48.69477" lon="1.75589">
        <ele>157.19999694824</ele>
        <time>2013-04-30T10:10:07.000Z</time>
      </trkpt>
      <trkpt lat="48.69454" lon="1.75598">
        <ele>158.80000305176</ele>
        <time>2013-04-30T10:10:13.000Z</time>
      </trkpt>
      <trkpt lat="48.6945" lon="1.756">
        <ele>159</ele>
        <time>2013-04-30T10:10:14.000Z</time>
      </trkpt>
      <trkpt lat="48.69423" lon="1.75602">
        <ele>160.39999389648</ele>
        <time>2013-04-30T10:10:21.000Z</time>
      </trkpt>
      <trkpt lat="48.69399" lon="1.756">
        <ele>160.60000610352</ele>
        <time>2013-04-30T10:10:27.000Z</time>
      </trkpt>
      <trkpt lat="48.69375" lon="1.75597">
        <ele>160.80000305176</ele>
        <time>2013-04-30T10:10:33.000Z</time>
      </trkpt>
      <trkpt lat="48.69357" lon="1.75593">
        <ele>160.80000305176</ele>
        <time>2013-04-30T10:10:39.000Z</time>
      </trkpt>
      <trkpt lat="48.69339" lon="1.75585">
        <ele>160.80000305176</ele>
        <time>2013-04-30T10:10:44.000Z</time>
      </trkpt>
      <trkpt lat="48.69321" lon="1.7557">
        <ele>160.39999389648</ele>
        <time>2013-04-30T10:10:49.000Z</time>
      </trkpt>
      <trkpt lat="48.69311" lon="1.75559">
        <ele>160</ele>
        <time>2013-04-30T10:10:52.000Z</time>
      </trkpt>
      <trkpt lat="48.69301" lon="1.75547">
        <ele>159.80000305176</ele>
        <time>2013-04-30T10:10:55.000Z</time>
      </trkpt>
      <trkpt lat="48.69283" lon="1.7553">
        <ele>159</ele>
        <time>2013-04-30T10:11:01.000Z</time>
      </trkpt>
      <trkpt lat="48.69275" lon="1.75522">
        <ele>158.80000305176</ele>
        <time>2013-04-30T10:11:06.000Z</time>
      </trkpt>
      <trkpt lat="48.69264" lon="1.75513">
        <ele>158.39999389648</ele>
        <time>2013-04-30T10:11:12.000Z</time>
      </trkpt>
      <trkpt lat="48.69256" lon="1.75504">
        <ele>158</ele>
        <time>2013-04-30T10:11:18.000Z</time>
      </trkpt>
      <trkpt lat="48.69254" lon="1.75503">
        <ele>158</ele>
        <time>2013-04-30T10:11:19.000Z</time>
      </trkpt>
      <trkpt lat="48.69243" lon="1.75495">
        <ele>158</ele>
        <time>2013-04-30T10:11:27.000Z</time>
      </trkpt>
      <trkpt lat="48.69234" lon="1.75486">
        <ele>158</ele>
        <time>2013-04-30T10:11:33.000Z</time>
      </trkpt>
      <trkpt lat="48.69228" lon="1.75479">
        <ele>158</ele>
        <time>2013-04-30T10:11:38.000Z</time>
      </trkpt>
      <trkpt lat="48.69224" lon="1.75474">
        <ele>158.19999694824</ele>
        <time>2013-04-30T10:11:43.000Z</time>
      </trkpt>
      <trkpt lat="48.6922" lon="1.7547">
        <ele>158.19999694824</ele>
        <time>2013-04-30T10:11:46.000Z</time>
      </trkpt>
      <trkpt lat="48.69211" lon="1.75461">
        <ele>158.19999694824</ele>
        <time>2013-04-30T10:11:52.000Z</time>
      </trkpt>
      <trkpt lat="48.6921" lon="1.7546">
        <ele>158.19999694824</ele>
        <time>2013-04-30T10:11:53.000Z</time>
      </trkpt>
      <trkpt lat="48.69199" lon="1.7545">
        <ele>158.19999694824</ele>
        <time>2013-04-30T10:12:01.000Z</time>
      </trkpt>
      <trkpt lat="48.6919" lon="1.75441">
        <ele>158</ele>
        <time>2013-04-30T10:12:08.000Z</time>
      </trkpt>
      <trkpt lat="48.69181" lon="1.75434">
        <ele>158</ele>
        <time>2013-04-30T10:12:14.000Z</time>
      </trkpt>
      <trkpt lat="48.69173" lon="1.75425">
        <ele>158</ele>
        <time>2013-04-30T10:12:21.000Z</time>
      </trkpt>
      <trkpt lat="48.69165" lon="1.75417">
        <ele>157.80000305176</ele>
        <time>2013-04-30T10:12:28.000Z</time>
      </trkpt>
      <trkpt lat="48.69157" lon="1.75411">
        <ele>158</ele>
        <time>2013-04-30T10:12:34.000Z</time>
      </trkpt>
      <trkpt lat="48.69148" lon="1.75402">
        <ele>158.19999694824</ele>
        <time>2013-04-30T10:12:40.000Z</time>
      </trkpt>
      <trkpt lat="48.69141" lon="1.75394">
        <ele>158.39999389648</ele>
        <time>2013-04-30T10:12:45.000Z</time>
      </trkpt>
      <trkpt lat="48.69135" lon="1.7539">
        <ele>158.39999389648</ele>
        <time>2013-04-30T10:12:49.000Z</time>
      </trkpt>
      <trkpt lat="48.69133" lon="1.75388">
        <ele>158.60000610352</ele>
        <time>2013-04-30T10:12:51.000Z</time>
      </trkpt>
      <trkpt lat="48.69126" lon="1.75382">
        <ele>158.60000610352</ele>
        <time>2013-04-30T10:12:57.000Z</time>
      </trkpt>
      <trkpt lat="48.69115" lon="1.75371">
        <ele>158.80000305176</ele>
        <time>2013-04-30T10:13:05.000Z</time>
      </trkpt>
      <trkpt lat="48.69108" lon="1.75364">
        <ele>158.80000305176</ele>
        <time>2013-04-30T10:13:10.000Z</time>
      </trkpt>
      <trkpt lat="48.691" lon="1.75355">
        <ele>158.80000305176</ele>
        <time>2013-04-30T10:13:16.000Z</time>
      </trkpt>
      <trkpt lat="48.69091" lon="1.75348">
        <ele>158.80000305176</ele>
        <time>2013-04-30T10:13:22.000Z</time>
      </trkpt>
      <trkpt lat="48.69086" lon="1.75342">
        <ele>158.60000610352</ele>
        <time>2013-04-30T10:13:26.000Z</time>
      </trkpt>
      <trkpt lat="48.69081" lon="1.75337">
        <ele>158.80000305176</ele>
        <time>2013-04-30T10:13:30.000Z</time>
      </trkpt>
      <trkpt lat="48.69075" lon="1.75331">
        <ele>158.60000610352</ele>
        <time>2013-04-30T10:13:38.000Z</time>
      </trkpt>
      <trkpt lat="48.6907" lon="1.75326">
        <ele>158.60000610352</ele>
        <time>2013-04-30T10:13:47.000Z</time>
      </trkpt>
      <trkpt lat="48.69062" lon="1.7532">
        <ele>158.39999389648</ele>
        <time>2013-04-30T10:13:52.000Z</time>
      </trkpt>
      <trkpt lat="48.69051" lon="1.7531">
        <ele>158</ele>
        <time>2013-04-30T10:14:00.000Z</time>
      </trkpt>
      <trkpt lat="48.69044" lon="1.75303">
        <ele>157.60000610352</ele>
        <time>2013-04-30T10:14:06.000Z</time>
      </trkpt>
      <trkpt lat="48.69035" lon="1.75295">
        <ele>157.19999694824</ele>
        <time>2013-04-30T10:14:13.000Z</time>
      </trkpt>
      <trkpt lat="48.69031" lon="1.75293">
        <ele>157</ele>
        <time>2013-04-30T10:14:15.000Z</time>
      </trkpt>
      <trkpt lat="48.69023" lon="1.75285">
        <ele>156.60000610352</ele>
        <time>2013-04-30T10:14:21.000Z</time>
      </trkpt>
      <trkpt lat="48.69013" lon="1.75274">
        <ele>156</ele>
        <time>2013-04-30T10:14:29.000Z</time>
      </trkpt>
      <trkpt lat="48.69004" lon="1.75275">
        <ele>155.60000610352</ele>
        <time>2013-04-30T10:14:36.000Z</time>
      </trkpt>
      <trkpt lat="48.68997" lon="1.75273">
        <ele>155.39999389648</ele>
        <time>2013-04-30T10:14:41.000Z</time>
      </trkpt>
      <trkpt lat="48.6899" lon="1.75274">
        <ele>155.19999694824</ele>
        <time>2013-04-30T10:14:47.000Z</time>
      </trkpt>
      <trkpt lat="48.68978" lon="1.75275">
        <ele>154.80000305176</ele>
        <time>2013-04-30T10:14:55.000Z</time>
      </trkpt>
      <trkpt lat="48.68971" lon="1.7528">
        <ele>154.80000305176</ele>
        <time>2013-04-30T10:15:01.000Z</time>
      </trkpt>
      <trkpt lat="48.68964" lon="1.75293">
        <ele>154.80000305176</ele>
        <time>2013-04-30T10:15:09.000Z</time>
      </trkpt>
      <trkpt lat="48.68957" lon="1.75296">
        <ele>154.60000610352</ele>
        <time>2013-04-30T10:15:16.000Z</time>
      </trkpt>
      <trkpt lat="48.68956" lon="1.75296">
        <ele>154.60000610352</ele>
        <time>2013-04-30T10:15:19.000Z</time>
      </trkpt>
      <trkpt lat="48.68948" lon="1.75299">
        <ele>154.39999389648</ele>
        <time>2013-04-30T10:15:33.000Z</time>
      </trkpt>
      <trkpt lat="48.68942" lon="1.75303">
        <ele>154.39999389648</ele>
        <time>2013-04-30T10:15:39.000Z</time>
      </trkpt>
      <trkpt lat="48.6894" lon="1.75304">
        <ele>154.39999389648</ele>
        <time>2013-04-30T10:15:41.000Z</time>
      </trkpt>
      <trkpt lat="48.6893" lon="1.7531">
        <ele>154</ele>
        <time>2013-04-30T10:15:46.000Z</time>
      </trkpt>
      <trkpt lat="48.68924" lon="1.75315">
        <ele>154</ele>
        <time>2013-04-30T10:15:49.000Z</time>
      </trkpt>
      <trkpt lat="48.68914" lon="1.75319">
        <ele>153.80000305176</ele>
        <time>2013-04-30T10:15:55.000Z</time>
      </trkpt>
      <trkpt lat="48.68905" lon="1.75323">
        <ele>154</ele>
        <time>2013-04-30T10:16:01.000Z</time>
      </trkpt>
      <trkpt lat="48.68896" lon="1.75329">
        <ele>154.19999694824</ele>
        <time>2013-04-30T10:16:07.000Z</time>
      </trkpt>
      <trkpt lat="48.68887" lon="1.75333">
        <ele>154.19999694824</ele>
        <time>2013-04-30T10:16:13.000Z</time>
      </trkpt>
      <trkpt lat="48.68878" lon="1.75338">
        <ele>154.60000610352</ele>
        <time>2013-04-30T10:16:19.000Z</time>
      </trkpt>
      <trkpt lat="48.6887" lon="1.75344">
        <ele>154.80000305176</ele>
        <time>2013-04-30T10:16:25.000Z</time>
      </trkpt>
      <trkpt lat="48.68863" lon="1.75347">
        <ele>155</ele>
        <time>2013-04-30T10:16:31.000Z</time>
      </trkpt>
      <trkpt lat="48.6885" lon="1.75354">
        <ele>155.39999389648</ele>
        <time>2013-04-30T10:16:40.000Z</time>
      </trkpt>
      <trkpt lat="48.68837" lon="1.75361">
        <ele>155.80000305176</ele>
        <time>2013-04-30T10:16:48.000Z</time>
      </trkpt>
      <trkpt lat="48.68833" lon="1.75363">
        <ele>156</ele>
        <time>2013-04-30T10:16:51.000Z</time>
      </trkpt>
      <trkpt lat="48.68823" lon="1.75371">
        <ele>156.19999694824</ele>
        <time>2013-04-30T10:16:58.000Z</time>
      </trkpt>
      <trkpt lat="48.68814" lon="1.75376">
        <ele>156.39999389648</ele>
        <time>2013-04-30T10:17:05.000Z</time>
      </trkpt>
      <trkpt lat="48.68804" lon="1.75381">
        <ele>156.39999389648</ele>
        <time>2013-04-30T10:17:12.000Z</time>
      </trkpt>
      <trkpt lat="48.68795" lon="1.75385">
        <ele>156.39999389648</ele>
        <time>2013-04-30T10:17:18.000Z</time>
      </trkpt>
      <trkpt lat="48.68786" lon="1.75389">
        <ele>156.60000610352</ele>
        <time>2013-04-30T10:17:24.000Z</time>
      </trkpt>
      <trkpt lat="48.68785" lon="1.7539">
        <ele>156.60000610352</ele>
        <time>2013-04-30T10:17:25.000Z</time>
      </trkpt>
      <trkpt lat="48.68782" lon="1.75393">
        <ele>156.60000610352</ele>
        <time>2013-04-30T10:17:28.000Z</time>
      </trkpt>
      <trkpt lat="48.68774" lon="1.75396">
        <ele>156.60000610352</ele>
        <time>2013-04-30T10:17:34.000Z</time>
      </trkpt>
      <trkpt lat="48.68773" lon="1.75397">
        <ele>156.60000610352</ele>
        <time>2013-04-30T10:17:35.000Z</time>
      </trkpt>
      <trkpt lat="48.68763" lon="1.75402">
        <ele>156.60000610352</ele>
        <time>2013-04-30T10:17:43.000Z</time>
      </trkpt>
      <trkpt lat="48.68756" lon="1.75404">
        <ele>156.60000610352</ele>
        <time>2013-04-30T10:17:48.000Z</time>
      </trkpt>
      <trkpt lat="48.6875" lon="1.75408">
        <ele>156.60000610352</ele>
        <time>2013-04-30T10:17:53.000Z</time>
      </trkpt>
      <trkpt lat="48.68743" lon="1.75411">
        <ele>156.80000305176</ele>
        <time>2013-04-30T10:17:59.000Z</time>
      </trkpt>
      <trkpt lat="48.68742" lon="1.75412">
        <ele>156.80000305176</ele>
        <time>2013-04-30T10:18:01.000Z</time>
      </trkpt>
      <trkpt lat="48.68739" lon="1.75414">
        <ele>156.80000305176</ele>
        <time>2013-04-30T10:18:05.000Z</time>
      </trkpt>
      <trkpt lat="48.68737" lon="1.75415">
        <ele>156.80000305176</ele>
        <time>2013-04-30T10:18:06.000Z</time>
      </trkpt>
      <trkpt lat="48.68728" lon="1.75421">
        <ele>157</ele>
        <time>2013-04-30T10:18:12.000Z</time>
      </trkpt>
      <trkpt lat="48.68721" lon="1.75424">
        <ele>157.19999694824</ele>
        <time>2013-04-30T10:18:17.000Z</time>
      </trkpt>
      <trkpt lat="48.68716" lon="1.75427">
        <ele>157.19999694824</ele>
        <time>2013-04-30T10:18:21.000Z</time>
      </trkpt>
      <trkpt lat="48.68708" lon="1.75433">
        <ele>157.39999389648</ele>
        <time>2013-04-30T10:18:27.000Z</time>
      </trkpt>
      <trkpt lat="48.68699" lon="1.75436">
        <ele>157.39999389648</ele>
        <time>2013-04-30T10:18:34.000Z</time>
      </trkpt>
      <trkpt lat="48.68691" lon="1.75441">
        <ele>157.60000610352</ele>
        <time>2013-04-30T10:18:40.000Z</time>
      </trkpt>
      <trkpt lat="48.68681" lon="1.75447">
        <ele>158</ele>
        <time>2013-04-30T10:18:47.000Z</time>
      </trkpt>
      <trkpt lat="48.68666" lon="1.75455">
        <ele>158.19999694824</ele>
        <time>2013-04-30T10:18:58.000Z</time>
      </trkpt>
      <trkpt lat="48.68663" lon="1.75456">
        <ele>158.39999389648</ele>
        <time>2013-04-30T10:19:00.000Z</time>
      </trkpt>
      <trkpt lat="48.68652" lon="1.75461">
        <ele>158.60000610352</ele>
        <time>2013-04-30T10:19:08.000Z</time>
      </trkpt>
      <trkpt lat="48.68642" lon="1.7547">
        <ele>159</ele>
        <time>2013-04-30T10:19:16.000Z</time>
      </trkpt>
      <trkpt lat="48.68633" lon="1.75476">
        <ele>159</ele>
        <time>2013-04-30T10:19:23.000Z</time>
      </trkpt>
      <trkpt lat="48.68623" lon="1.75482">
        <ele>159.19999694824</ele>
        <time>2013-04-30T10:19:30.000Z</time>
      </trkpt>
      <trkpt lat="48.68611" lon="1.75487">
        <ele>159.19999694824</ele>
        <time>2013-04-30T10:19:38.000Z</time>
      </trkpt>
      <trkpt lat="48.68603" lon="1.75493">
        <ele>159.19999694824</ele>
        <time>2013-04-30T10:19:44.000Z</time>
      </trkpt>
      <trkpt lat="48.68593" lon="1.75498">
        <ele>159</ele>
        <time>2013-04-30T10:19:51.000Z</time>
      </trkpt>
      <trkpt lat="48.68586" lon="1.75501">
        <ele>159</ele>
        <time>2013-04-30T10:19:56.000Z</time>
      </trkpt>
      <trkpt lat="48.68584" lon="1.75502">
        <ele>159</ele>
        <time>2013-04-30T10:19:57.000Z</time>
      </trkpt>
      <trkpt lat="48.68573" lon="1.75507">
        <ele>158.80000305176</ele>
        <time>2013-04-30T10:20:04.000Z</time>
      </trkpt>
      <trkpt lat="48.68566" lon="1.75512">
        <ele>158.80000305176</ele>
        <time>2013-04-30T10:20:11.000Z</time>
      </trkpt>
      <trkpt lat="48.68558" lon="1.75515">
        <ele>158.60000610352</ele>
        <time>2013-04-30T10:20:17.000Z</time>
      </trkpt>
      <trkpt lat="48.68553" lon="1.75518">
        <ele>158.60000610352</ele>
        <time>2013-04-30T10:20:22.000Z</time>
      </trkpt>
      <trkpt lat="48.68544" lon="1.75525">
        <ele>158.39999389648</ele>
        <time>2013-04-30T10:20:30.000Z</time>
      </trkpt>
      <trkpt lat="48.68543" lon="1.75526">
        <ele>158.39999389648</ele>
        <time>2013-04-30T10:20:31.000Z</time>
      </trkpt>
      <trkpt lat="48.68538" lon="1.75529">
        <ele>158.19999694824</ele>
        <time>2013-04-30T10:20:35.000Z</time>
      </trkpt>
      <trkpt lat="48.68533" lon="1.75534">
        <ele>158</ele>
        <time>2013-04-30T10:20:39.000Z</time>
      </trkpt>
      <trkpt lat="48.68525" lon="1.75536">
        <ele>157.80000305176</ele>
        <time>2013-04-30T10:20:46.000Z</time>
      </trkpt>
      <trkpt lat="48.68517" lon="1.7554">
        <ele>157.39999389648</ele>
        <time>2013-04-30T10:20:53.000Z</time>
      </trkpt>
      <trkpt lat="48.68512" lon="1.75533">
        <ele>157.60000610352</ele>
        <time>2013-04-30T10:20:59.000Z</time>
      </trkpt>
      <trkpt lat="48.68511" lon="1.75519">
        <ele>158.19999694824</ele>
        <time>2013-04-30T10:21:06.000Z</time>
      </trkpt>
      <trkpt lat="48.68509" lon="1.75504">
        <ele>158.80000305176</ele>
        <time>2013-04-30T10:21:13.000Z</time>
      </trkpt>
      <trkpt lat="48.68507" lon="1.755">
        <ele>159</ele>
        <time>2013-04-30T10:21:15.000Z</time>
      </trkpt>
      <trkpt lat="48.68507" lon="1.75491">
        <ele>159.39999389648</ele>
        <time>2013-04-30T10:21:20.000Z</time>
      </trkpt>
      <trkpt lat="48.68505" lon="1.75474">
        <ele>160.39999389648</ele>
        <time>2013-04-30T10:21:27.000Z</time>
      </trkpt>
      <trkpt lat="48.68505" lon="1.75456">
        <ele>161.39999389648</ele>
        <time>2013-04-30T10:21:35.000Z</time>
      </trkpt>
      <trkpt lat="48.68502" lon="1.75441">
        <ele>162.39999389648</ele>
        <time>2013-04-30T10:21:42.000Z</time>
      </trkpt>
      <trkpt lat="48.68499" lon="1.75422">
        <ele>163.60000610352</ele>
        <time>2013-04-30T10:21:51.000Z</time>
      </trkpt>
      <trkpt lat="48.68497" lon="1.75413">
        <ele>164</ele>
        <time>2013-04-30T10:21:55.000Z</time>
      </trkpt>
      <trkpt lat="48.68494" lon="1.75393">
        <ele>165.19999694824</ele>
        <time>2013-04-30T10:22:04.000Z</time>
      </trkpt>
      <trkpt lat="48.68491" lon="1.75374">
        <ele>166</ele>
        <time>2013-04-30T10:22:12.000Z</time>
      </trkpt>
      <trkpt lat="48.68491" lon="1.75357">
        <ele>166.80000305176</ele>
        <time>2013-04-30T10:22:19.000Z</time>
      </trkpt>
      <trkpt lat="48.68491" lon="1.7535">
        <ele>167.19999694824</ele>
        <time>2013-04-30T10:22:23.000Z</time>
      </trkpt>
      <trkpt lat="48.6849" lon="1.75334">
        <ele>168</ele>
        <time>2013-04-30T10:22:32.000Z</time>
      </trkpt>
      <trkpt lat="48.68487" lon="1.75324">
        <ele>168.19999694824</ele>
        <time>2013-04-30T10:22:36.000Z</time>
      </trkpt>
      <trkpt lat="48.68486" lon="1.75313">
        <ele>168.39999389648</ele>
        <time>2013-04-30T10:22:42.000Z</time>
      </trkpt>
      <trkpt lat="48.68484" lon="1.75307">
        <ele>168.39999389648</ele>
        <time>2013-04-30T10:22:46.000Z</time>
      </trkpt>
      <trkpt lat="48.68481" lon="1.75294">
        <ele>168.60000610352</ele>
        <time>2013-04-30T10:22:53.000Z</time>
      </trkpt>
      <trkpt lat="48.68482" lon="1.75278">
        <ele>168.80000305176</ele>
        <time>2013-04-30T10:23:01.000Z</time>
      </trkpt>
      <trkpt lat="48.6848" lon="1.7526">
        <ele>169</ele>
        <time>2013-04-30T10:23:10.000Z</time>
      </trkpt>
      <trkpt lat="48.68478" lon="1.75257">
        <ele>169</ele>
        <time>2013-04-30T10:23:12.000Z</time>
      </trkpt>
      <trkpt lat="48.68473" lon="1.75234">
        <ele>169.19999694824</ele>
        <time>2013-04-30T10:23:23.000Z</time>
      </trkpt>
      <trkpt lat="48.68472" lon="1.75219">
        <ele>169.39999389648</ele>
        <time>2013-04-30T10:23:30.000Z</time>
      </trkpt>
      <trkpt lat="48.6847" lon="1.752">
        <ele>169.39999389648</ele>
        <time>2013-04-30T10:23:39.000Z</time>
      </trkpt>
      <trkpt lat="48.68469" lon="1.75185">
        <ele>169.39999389648</ele>
        <time>2013-04-30T10:23:46.000Z</time>
      </trkpt>
      <trkpt lat="48.68465" lon="1.75169">
        <ele>169.39999389648</ele>
        <time>2013-04-30T10:23:53.000Z</time>
      </trkpt>
      <trkpt lat="48.68463" lon="1.75159">
        <ele>169.39999389648</ele>
        <time>2013-04-30T10:23:58.000Z</time>
      </trkpt>
      <trkpt lat="48.68461" lon="1.75148">
        <ele>169.39999389648</ele>
        <time>2013-04-30T10:24:03.000Z</time>
      </trkpt>
      <trkpt lat="48.68459" lon="1.75139">
        <ele>169.19999694824</ele>
        <time>2013-04-30T10:24:07.000Z</time>
      </trkpt>
      <trkpt lat="48.68457" lon="1.75131">
        <ele>169.19999694824</ele>
        <time>2013-04-30T10:24:11.000Z</time>
      </trkpt>
      <trkpt lat="48.68455" lon="1.75117">
        <ele>169</ele>
        <time>2013-04-30T10:24:18.000Z</time>
      </trkpt>
      <trkpt lat="48.68453" lon="1.75102">
        <ele>168.80000305176</ele>
        <time>2013-04-30T10:24:25.000Z</time>
      </trkpt>
      <trkpt lat="48.68451" lon="1.75086">
        <ele>168.80000305176</ele>
        <time>2013-04-30T10:24:31.000Z</time>
      </trkpt>
      <trkpt lat="48.68454" lon="1.75076">
        <ele>168.80000305176</ele>
        <time>2013-04-30T10:24:36.000Z</time>
      </trkpt>
      <trkpt lat="48.68455" lon="1.75072">
        <ele>168.60000610352</ele>
        <time>2013-04-30T10:24:38.000Z</time>
      </trkpt>
      <trkpt lat="48.68454" lon="1.75062">
        <ele>168.60000610352</ele>
        <time>2013-04-30T10:24:42.000Z</time>
      </trkpt>
      <trkpt lat="48.68452" lon="1.75048">
        <ele>168.39999389648</ele>
        <time>2013-04-30T10:24:48.000Z</time>
      </trkpt>
      <trkpt lat="48.68451" lon="1.75041">
        <ele>168.39999389648</ele>
        <time>2013-04-30T10:24:51.000Z</time>
      </trkpt>
      <trkpt lat="48.6845" lon="1.75028">
        <ele>168.19999694824</ele>
        <time>2013-04-30T10:24:57.000Z</time>
      </trkpt>
      <trkpt lat="48.68449" lon="1.75025">
        <ele>168.19999694824</ele>
        <time>2013-04-30T10:24:59.000Z</time>
      </trkpt>
      <trkpt lat="48.6845" lon="1.75019">
        <ele>168</ele>
        <time>2013-04-30T10:25:03.000Z</time>
      </trkpt>
      <trkpt lat="48.68449" lon="1.75012">
        <ele>168</ele>
        <time>2013-04-30T10:25:07.000Z</time>
      </trkpt>
      <trkpt lat="48.6845" lon="1.74998">
        <ele>167.80000305176</ele>
        <time>2013-04-30T10:25:14.000Z</time>
      </trkpt>
      <trkpt lat="48.68449" lon="1.74984">
        <ele>167.80000305176</ele>
        <time>2013-04-30T10:25:21.000Z</time>
      </trkpt>
      <trkpt lat="48.68445" lon="1.74965">
        <ele>167.80000305176</ele>
        <time>2013-04-30T10:25:28.000Z</time>
      </trkpt>
      <trkpt lat="48.68442" lon="1.74956">
        <ele>167.60000610352</ele>
        <time>2013-04-30T10:25:32.000Z</time>
      </trkpt>
      <trkpt lat="48.68441" lon="1.74938">
        <ele>167.60000610352</ele>
        <time>2013-04-30T10:25:39.000Z</time>
      </trkpt>
      <trkpt lat="48.68441" lon="1.74931">
        <ele>167.60000610352</ele>
        <time>2013-04-30T10:25:42.000Z</time>
      </trkpt>
      <trkpt lat="48.68439" lon="1.74917">
        <ele>167.39999389648</ele>
        <time>2013-04-30T10:25:49.000Z</time>
      </trkpt>
      <trkpt lat="48.68436" lon="1.74905">
        <ele>167.19999694824</ele>
        <time>2013-04-30T10:25:54.000Z</time>
      </trkpt>
      <trkpt lat="48.68435" lon="1.74898">
        <ele>167</ele>
        <time>2013-04-30T10:25:57.000Z</time>
      </trkpt>
      <trkpt lat="48.68431" lon="1.74883">
        <ele>166.39999389648</ele>
        <time>2013-04-30T10:26:02.000Z</time>
      </trkpt>
      <trkpt lat="48.68426" lon="1.74862">
        <ele>165.80000305176</ele>
        <time>2013-04-30T10:26:10.000Z</time>
      </trkpt>
      <trkpt lat="48.68424" lon="1.7484">
        <ele>165.39999389648</ele>
        <time>2013-04-30T10:26:20.000Z</time>
      </trkpt>
      <trkpt lat="48.68421" lon="1.74826">
        <ele>165</ele>
        <time>2013-04-30T10:26:25.000Z</time>
      </trkpt>
      <trkpt lat="48.68421" lon="1.74813">
        <ele>164.60000610352</ele>
        <time>2013-04-30T10:26:30.000Z</time>
      </trkpt>
      <trkpt lat="48.68419" lon="1.74799">
        <ele>164.19999694824</ele>
        <time>2013-04-30T10:26:36.000Z</time>
      </trkpt>
      <trkpt lat="48.68416" lon="1.7478">
        <ele>163.60000610352</ele>
        <time>2013-04-30T10:26:46.000Z</time>
      </trkpt>
      <trkpt lat="48.68413" lon="1.74761">
        <ele>162.80000305176</ele>
        <time>2013-04-30T10:26:53.000Z</time>
      </trkpt>
      <trkpt lat="48.68412" lon="1.7475">
        <ele>162.60000610352</ele>
        <time>2013-04-30T10:26:57.000Z</time>
      </trkpt>
      <trkpt lat="48.68412" lon="1.74745">
        <ele>162.19999694824</ele>
        <time>2013-04-30T10:26:59.000Z</time>
      </trkpt>
      <trkpt lat="48.68413" lon="1.74736">
        <ele>162</ele>
        <time>2013-04-30T10:27:03.000Z</time>
      </trkpt>
      <trkpt lat="48.68414" lon="1.74732">
        <ele>161.80000305176</ele>
        <time>2013-04-30T10:27:05.000Z</time>
      </trkpt>
      <trkpt lat="48.68412" lon="1.74722">
        <ele>161.19999694824</ele>
        <time>2013-04-30T10:27:10.000Z</time>
      </trkpt>
      <trkpt lat="48.68411" lon="1.74715">
        <ele>160.80000305176</ele>
        <time>2013-04-30T10:27:13.000Z</time>
      </trkpt>
      <trkpt lat="48.68413" lon="1.74706">
        <ele>160.39999389648</ele>
        <time>2013-04-30T10:27:18.000Z</time>
      </trkpt>
      <trkpt lat="48.68413" lon="1.74701">
        <ele>160.19999694824</ele>
        <time>2013-04-30T10:27:20.000Z</time>
      </trkpt>
      <trkpt lat="48.68411" lon="1.74692">
        <ele>159.80000305176</ele>
        <time>2013-04-30T10:27:23.000Z</time>
      </trkpt>
      <trkpt lat="48.68414" lon="1.74682">
        <ele>159.39999389648</ele>
        <time>2013-04-30T10:27:28.000Z</time>
      </trkpt>
      <trkpt lat="48.6842" lon="1.74666">
        <ele>159</ele>
        <time>2013-04-30T10:27:35.000Z</time>
      </trkpt>
      <trkpt lat="48.68424" lon="1.74655">
        <ele>158.80000305176</ele>
        <time>2013-04-30T10:27:40.000Z</time>
      </trkpt>
      <trkpt lat="48.6843" lon="1.74638">
        <ele>158.19999694824</ele>
        <time>2013-04-30T10:27:48.000Z</time>
      </trkpt>
      <trkpt lat="48.6843" lon="1.74635">
        <ele>158.19999694824</ele>
        <time>2013-04-30T10:27:49.000Z</time>
      </trkpt>
      <trkpt lat="48.68432" lon="1.74622">
        <ele>157.60000610352</ele>
        <time>2013-04-30T10:27:54.000Z</time>
      </trkpt>
      <trkpt lat="48.68436" lon="1.74609">
        <ele>157.39999389648</ele>
        <time>2013-04-30T10:28:01.000Z</time>
      </trkpt>
      <trkpt lat="48.68438" lon="1.74605">
        <ele>157.19999694824</ele>
        <time>2013-04-30T10:28:03.000Z</time>
      </trkpt>
      <trkpt lat="48.6844" lon="1.74599">
        <ele>157.19999694824</ele>
        <time>2013-04-30T10:28:06.000Z</time>
      </trkpt>
      <trkpt lat="48.68442" lon="1.74591">
        <ele>157</ele>
        <time>2013-04-30T10:28:10.000Z</time>
      </trkpt>
      <trkpt lat="48.68449" lon="1.7458">
        <ele>157.19999694824</ele>
        <time>2013-04-30T10:28:16.000Z</time>
      </trkpt>
      <trkpt lat="48.68451" lon="1.74578">
        <ele>157.19999694824</ele>
        <time>2013-04-30T10:28:18.000Z</time>
      </trkpt>
      <trkpt lat="48.68459" lon="1.74572">
        <ele>157.60000610352</ele>
        <time>2013-04-30T10:28:24.000Z</time>
      </trkpt>
      <trkpt lat="48.68465" lon="1.74566">
        <ele>158</ele>
        <time>2013-04-30T10:28:29.000Z</time>
      </trkpt>
      <trkpt lat="48.68474" lon="1.7456">
        <ele>158.39999389648</ele>
        <time>2013-04-30T10:28:34.000Z</time>
      </trkpt>
      <trkpt lat="48.68479" lon="1.74555">
        <ele>158.39999389648</ele>
        <time>2013-04-30T10:28:38.000Z</time>
      </trkpt>
      <trkpt lat="48.68489" lon="1.74545">
        <ele>158.19999694824</ele>
        <time>2013-04-30T10:28:44.000Z</time>
      </trkpt>
      <trkpt lat="48.685" lon="1.74534">
        <ele>158.19999694824</ele>
        <time>2013-04-30T10:28:51.000Z</time>
      </trkpt>
      <trkpt lat="48.68509" lon="1.74523">
        <ele>157.80000305176</ele>
        <time>2013-04-30T10:28:58.000Z</time>
      </trkpt>
      <trkpt lat="48.68518" lon="1.74517">
        <ele>158</ele>
        <time>2013-04-30T10:29:04.000Z</time>
      </trkpt>
      <trkpt lat="48.68526" lon="1.74507">
        <ele>157.80000305176</ele>
        <time>2013-04-30T10:29:10.000Z</time>
      </trkpt>
      <trkpt lat="48.68532" lon="1.745">
        <ele>157.60000610352</ele>
        <time>2013-04-30T10:29:15.000Z</time>
      </trkpt>
      <trkpt lat="48.6854" lon="1.74493">
        <ele>157.80000305176</ele>
        <time>2013-04-30T10:29:20.000Z</time>
      </trkpt>
      <trkpt lat="48.68541" lon="1.74492">
        <ele>157.80000305176</ele>
        <time>2013-04-30T10:29:21.000Z</time>
      </trkpt>
      <trkpt lat="48.68546" lon="1.74487">
        <ele>157.80000305176</ele>
        <time>2013-04-30T10:29:25.000Z</time>
      </trkpt>
      <trkpt lat="48.68556" lon="1.74475">
        <ele>157.80000305176</ele>
        <time>2013-04-30T10:29:32.000Z</time>
      </trkpt>
      <trkpt lat="48.68561" lon="1.74468">
        <ele>157.80000305176</ele>
        <time>2013-04-30T10:29:37.000Z</time>
      </trkpt>
      <trkpt lat="48.68569" lon="1.74457">
        <ele>157.60000610352</ele>
        <time>2013-04-30T10:29:43.000Z</time>
      </trkpt>
      <trkpt lat="48.68572" lon="1.74452">
        <ele>157.60000610352</ele>
        <time>2013-04-30T10:29:46.000Z</time>
      </trkpt>
      <trkpt lat="48.68582" lon="1.74435">
        <ele>157</ele>
        <time>2013-04-30T10:29:54.000Z</time>
      </trkpt>
      <trkpt lat="48.68588" lon="1.74424">
        <ele>157</ele>
        <time>2013-04-30T10:30:00.000Z</time>
      </trkpt>
      <trkpt lat="48.6859" lon="1.74421">
        <ele>157</ele>
        <time>2013-04-30T10:30:02.000Z</time>
      </trkpt>
      <trkpt lat="48.68596" lon="1.74413">
        <ele>157.19999694824</ele>
        <time>2013-04-30T10:30:07.000Z</time>
      </trkpt>
      <trkpt lat="48.68599" lon="1.74405">
        <ele>157.39999389648</ele>
        <time>2013-04-30T10:30:11.000Z</time>
      </trkpt>
      <trkpt lat="48.68603" lon="1.74398">
        <ele>157.60000610352</ele>
        <time>2013-04-30T10:30:15.000Z</time>
      </trkpt>
      <trkpt lat="48.6861" lon="1.74388">
        <ele>158</ele>
        <time>2013-04-30T10:30:20.000Z</time>
      </trkpt>
      <trkpt lat="48.68622" lon="1.74367">
        <ele>158.39999389648</ele>
        <time>2013-04-30T10:30:26.000Z</time>
      </trkpt>
      <trkpt lat="48.68636" lon="1.74347">
        <ele>158.60000610352</ele>
        <time>2013-04-30T10:30:32.000Z</time>
      </trkpt>
      <trkpt lat="48.68645" lon="1.74331">
        <ele>158.60000610352</ele>
        <time>2013-04-30T10:30:36.000Z</time>
      </trkpt>
      <trkpt lat="48.68652" lon="1.74319">
        <ele>158.80000305176</ele>
        <time>2013-04-30T10:30:39.000Z</time>
      </trkpt>
      <trkpt lat="48.68661" lon="1.74304">
        <ele>158.60000610352</ele>
        <time>2013-04-30T10:30:44.000Z</time>
      </trkpt>
      <trkpt lat="48.68673" lon="1.74299">
        <ele>159</ele>
        <time>2013-04-30T10:30:49.000Z</time>
      </trkpt>
      <trkpt lat="48.68688" lon="1.74295">
        <ele>159.39999389648</ele>
        <time>2013-04-30T10:30:54.000Z</time>
      </trkpt>
      <trkpt lat="48.68706" lon="1.74296">
        <ele>160.39999389648</ele>
        <time>2013-04-30T10:30:59.000Z</time>
      </trkpt>
      <trkpt lat="48.68723" lon="1.74306">
        <ele>162</ele>
        <time>2013-04-30T10:31:04.000Z</time>
      </trkpt>
      <trkpt lat="48.6874" lon="1.74316">
        <ele>164.19999694824</ele>
        <time>2013-04-30T10:31:09.000Z</time>
      </trkpt>
      <trkpt lat="48.68753" lon="1.74328">
        <ele>165.80000305176</ele>
        <time>2013-04-30T10:31:14.000Z</time>
      </trkpt>
      <trkpt lat="48.68768" lon="1.74344">
        <ele>164.60000610352</ele>
        <time>2013-04-30T10:31:19.000Z</time>
      </trkpt>
      <trkpt lat="48.68779" lon="1.74368">
        <ele>164</ele>
        <time>2013-04-30T10:31:24.000Z</time>
      </trkpt>
      <trkpt lat="48.6878" lon="1.74393">
        <ele>164.80000305176</ele>
        <time>2013-04-30T10:31:29.000Z</time>
      </trkpt>
      <trkpt lat="48.68775" lon="1.74421">
        <ele>166.19999694824</ele>
        <time>2013-04-30T10:31:35.000Z</time>
      </trkpt>
      <trkpt lat="48.68767" lon="1.74444">
        <ele>167</ele>
        <time>2013-04-30T10:31:40.000Z</time>
      </trkpt>
      <trkpt lat="48.68759" lon="1.7447">
        <ele>168</ele>
        <time>2013-04-30T10:31:45.000Z</time>
      </trkpt>
      <trkpt lat="48.68752" lon="1.74505">
        <ele>168.39999389648</ele>
        <time>2013-04-30T10:31:51.000Z</time>
      </trkpt>
      <trkpt lat="48.68737" lon="1.74531">
        <ele>168.19999694824</ele>
        <time>2013-04-30T10:31:57.000Z</time>
      </trkpt>
      <trkpt lat="48.68729" lon="1.74551">
        <ele>168</ele>
        <time>2013-04-30T10:32:01.000Z</time>
      </trkpt>
      <trkpt lat="48.68727" lon="1.74556">
        <ele>168</ele>
        <time>2013-04-30T10:32:02.000Z</time>
      </trkpt>
      <trkpt lat="48.6872" lon="1.74575">
        <ele>168</ele>
        <time>2013-04-30T10:32:06.000Z</time>
      </trkpt>
      <trkpt lat="48.68714" lon="1.74608">
        <ele>168</ele>
        <time>2013-04-30T10:32:12.000Z</time>
      </trkpt>
      <trkpt lat="48.68702" lon="1.74632">
        <ele>168.39999389648</ele>
        <time>2013-04-30T10:32:17.000Z</time>
      </trkpt>
      <trkpt lat="48.68692" lon="1.74655">
        <ele>168.80000305176</ele>
        <time>2013-04-30T10:32:22.000Z</time>
      </trkpt>
      <trkpt lat="48.68688" lon="1.74673">
        <ele>168.80000305176</ele>
        <time>2013-04-30T10:32:26.000Z</time>
      </trkpt>
      <trkpt lat="48.68681" lon="1.74696">
        <ele>169</ele>
        <time>2013-04-30T10:32:30.000Z</time>
      </trkpt>
      <trkpt lat="48.68684" lon="1.74713">
        <ele>168.60000610352</ele>
        <time>2013-04-30T10:32:34.000Z</time>
      </trkpt>
      <trkpt lat="48.68689" lon="1.74723">
        <ele>168.19999694824</ele>
        <time>2013-04-30T10:32:38.000Z</time>
      </trkpt>
      <trkpt lat="48.68696" lon="1.74738">
        <ele>167.19999694824</ele>
        <time>2013-04-30T10:32:45.000Z</time>
      </trkpt>
      <trkpt lat="48.687" lon="1.74751">
        <ele>166.60000610352</ele>
        <time>2013-04-30T10:32:50.000Z</time>
      </trkpt>
      <trkpt lat="48.68705" lon="1.74764">
        <ele>165.60000610352</ele>
        <time>2013-04-30T10:32:56.000Z</time>
      </trkpt>
      <trkpt lat="48.68707" lon="1.74768">
        <ele>165.19999694824</ele>
        <time>2013-04-30T10:32:58.000Z</time>
      </trkpt>
      <trkpt lat="48.68713" lon="1.74781">
        <ele>164.19999694824</ele>
        <time>2013-04-30T10:33:04.000Z</time>
      </trkpt>
      <trkpt lat="48.68715" lon="1.74785">
        <ele>163.80000305176</ele>
        <time>2013-04-30T10:33:06.000Z</time>
      </trkpt>
      <trkpt lat="48.6872" lon="1.74797">
        <ele>163</ele>
        <time>2013-04-30T10:33:12.000Z</time>
      </trkpt>
      <trkpt lat="48.68724" lon="1.74806">
        <ele>162.19999694824</ele>
        <time>2013-04-30T10:33:16.000Z</time>
      </trkpt>
      <trkpt lat="48.68728" lon="1.74816">
        <ele>161.39999389648</ele>
        <time>2013-04-30T10:33:20.000Z</time>
      </trkpt>
      <trkpt lat="48.68731" lon="1.74827">
        <ele>160.80000305176</ele>
        <time>2013-04-30T10:33:24.000Z</time>
      </trkpt>
      <trkpt lat="48.68732" lon="1.74829">
        <ele>160.60000610352</ele>
        <time>2013-04-30T10:33:25.000Z</time>
      </trkpt>
      <trkpt lat="48.68732" lon="1.74838">
        <ele>160.19999694824</ele>
        <time>2013-04-30T10:33:28.000Z</time>
      </trkpt>
      <trkpt lat="48.68735" lon="1.74849">
        <ele>159.80000305176</ele>
        <time>2013-04-30T10:33:33.000Z</time>
      </trkpt>
      <trkpt lat="48.68736" lon="1.74851">
        <ele>159.60000610352</ele>
        <time>2013-04-30T10:33:34.000Z</time>
      </trkpt>
      <trkpt lat="48.68744" lon="1.74859">
        <ele>158.80000305176</ele>
        <time>2013-04-30T10:33:38.000Z</time>
      </trkpt>
      <trkpt lat="48.68749" lon="1.74867">
        <ele>158.19999694824</ele>
        <time>2013-04-30T10:33:43.000Z</time>
      </trkpt>
      <trkpt lat="48.68753" lon="1.74876">
        <ele>157.80000305176</ele>
        <time>2013-04-30T10:33:48.000Z</time>
      </trkpt>
      <trkpt lat="48.68759" lon="1.74885">
        <ele>157.39999389648</ele>
        <time>2013-04-30T10:33:53.000Z</time>
      </trkpt>
      <trkpt lat="48.68768" lon="1.74897">
        <ele>157</ele>
        <time>2013-04-30T10:33:59.000Z</time>
      </trkpt>
      <trkpt lat="48.68769" lon="1.74899">
        <ele>157</ele>
        <time>2013-04-30T10:34:00.000Z</time>
      </trkpt>
      <trkpt lat="48.68776" lon="1.74907">
        <ele>156.80000305176</ele>
        <time>2013-04-30T10:34:05.000Z</time>
      </trkpt>
      <trkpt lat="48.68784" lon="1.74923">
        <ele>156.39999389648</ele>
        <time>2013-04-30T10:34:12.000Z</time>
      </trkpt>
      <trkpt lat="48.68791" lon="1.74938">
        <ele>156.19999694824</ele>
        <time>2013-04-30T10:34:17.000Z</time>
      </trkpt>
      <trkpt lat="48.68798" lon="1.74953">
        <ele>155.80000305176</ele>
        <time>2013-04-30T10:34:22.000Z</time>
      </trkpt>
      <trkpt lat="48.68805" lon="1.74967">
        <ele>155.60000610352</ele>
        <time>2013-04-30T10:34:27.000Z</time>
      </trkpt>
      <trkpt lat="48.68814" lon="1.74984">
        <ele>155.39999389648</ele>
        <time>2013-04-30T10:34:34.000Z</time>
      </trkpt>
      <trkpt lat="48.68823" lon="1.74999">
        <ele>155</ele>
        <time>2013-04-30T10:34:41.000Z</time>
      </trkpt>
      <trkpt lat="48.68828" lon="1.75011">
        <ele>155</ele>
        <time>2013-04-30T10:34:47.000Z</time>
      </trkpt>
      <trkpt lat="48.68833" lon="1.75021">
        <ele>155</ele>
        <time>2013-04-30T10:34:52.000Z</time>
      </trkpt>
      <trkpt lat="48.6884" lon="1.7504">
        <ele>154.80000305176</ele>
        <time>2013-04-30T10:35:00.000Z</time>
      </trkpt>
      <trkpt lat="48.68844" lon="1.75053">
        <ele>154.80000305176</ele>
        <time>2013-04-30T10:35:06.000Z</time>
      </trkpt>
      <trkpt lat="48.68851" lon="1.75064">
        <ele>154.60000610352</ele>
        <time>2013-04-30T10:35:12.000Z</time>
      </trkpt>
      <trkpt lat="48.68854" lon="1.75073">
        <ele>154.60000610352</ele>
        <time>2013-04-30T10:35:17.000Z</time>
      </trkpt>
      <trkpt lat="48.68855" lon="1.75075">
        <ele>154.60000610352</ele>
        <time>2013-04-30T10:35:18.000Z</time>
      </trkpt>
      <trkpt lat="48.68858" lon="1.75082">
        <ele>154.60000610352</ele>
        <time>2013-04-30T10:35:21.000Z</time>
      </trkpt>
      <trkpt lat="48.68865" lon="1.75094">
        <ele>154.39999389648</ele>
        <time>2013-04-30T10:35:27.000Z</time>
      </trkpt>
      <trkpt lat="48.68873" lon="1.75107">
        <ele>154.19999694824</ele>
        <time>2013-04-30T10:35:34.000Z</time>
      </trkpt>
      <trkpt lat="48.6888" lon="1.75121">
        <ele>154</ele>
        <time>2013-04-30T10:35:41.000Z</time>
      </trkpt>
      <trkpt lat="48.68886" lon="1.75135">
        <ele>153.80000305176</ele>
        <time>2013-04-30T10:35:49.000Z</time>
      </trkpt>
      <trkpt lat="48.68887" lon="1.75137">
        <ele>153.80000305176</ele>
        <time>2013-04-30T10:35:50.000Z</time>
      </trkpt>
      <trkpt lat="48.68892" lon="1.75152">
        <ele>153.60000610352</ele>
        <time>2013-04-30T10:35:57.000Z</time>
      </trkpt>
      <trkpt lat="48.68896" lon="1.75167">
        <ele>153.39999389648</ele>
        <time>2013-04-30T10:36:04.000Z</time>
      </trkpt>
      <trkpt lat="48.68897" lon="1.75168">
        <ele>153.39999389648</ele>
        <time>2013-04-30T10:36:05.000Z</time>
      </trkpt>
      <trkpt lat="48.68898" lon="1.75175">
        <ele>153.39999389648</ele>
        <time>2013-04-30T10:36:09.000Z</time>
      </trkpt>
      <trkpt lat="48.68903" lon="1.75183">
        <ele>153.19999694824</ele>
        <time>2013-04-30T10:36:13.000Z</time>
      </trkpt>
      <trkpt lat="48.68908" lon="1.7519">
        <ele>153</ele>
        <time>2013-04-30T10:36:17.000Z</time>
      </trkpt>
      <trkpt lat="48.68913" lon="1.75198">
        <ele>153</ele>
        <time>2013-04-30T10:36:22.000Z</time>
      </trkpt>
      <trkpt lat="48.6892" lon="1.75205">
        <ele>153</ele>
        <time>2013-04-30T10:36:27.000Z</time>
      </trkpt>
      <trkpt lat="48.68928" lon="1.75218">
        <ele>153.19999694824</ele>
        <time>2013-04-30T10:36:33.000Z</time>
      </trkpt>
      <trkpt lat="48.68931" lon="1.75223">
        <ele>153.19999694824</ele>
        <time>2013-04-30T10:36:36.000Z</time>
      </trkpt>
      <trkpt lat="48.68934" lon="1.75228">
        <ele>153.19999694824</ele>
        <time>2013-04-30T10:36:38.000Z</time>
      </trkpt>
      <trkpt lat="48.68938" lon="1.75238">
        <ele>153.39999389648</ele>
        <time>2013-04-30T10:36:42.000Z</time>
      </trkpt>
      <trkpt lat="48.68944" lon="1.75252">
        <ele>153.60000610352</ele>
        <time>2013-04-30T10:36:49.000Z</time>
      </trkpt>
      <trkpt lat="48.6895" lon="1.75261">
        <ele>153.80000305176</ele>
        <time>2013-04-30T10:36:55.000Z</time>
      </trkpt>
      <trkpt lat="48.68956" lon="1.75272">
        <ele>154.19999694824</ele>
        <time>2013-04-30T10:37:02.000Z</time>
      </trkpt>
      <trkpt lat="48.68959" lon="1.75277">
        <ele>154.39999389648</ele>
        <time>2013-04-30T10:37:05.000Z</time>
      </trkpt>
      <trkpt lat="48.68961" lon="1.7529">
        <ele>154.80000305176</ele>
        <time>2013-04-30T10:37:11.000Z</time>
      </trkpt>
      <trkpt lat="48.68966" lon="1.75296">
        <ele>155</ele>
        <time>2013-04-30T10:37:16.000Z</time>
      </trkpt>
      <trkpt lat="48.68972" lon="1.75306">
        <ele>155.39999389648</ele>
        <time>2013-04-30T10:37:23.000Z</time>
      </trkpt>
      <trkpt lat="48.68974" lon="1.75311">
        <ele>155.60000610352</ele>
        <time>2013-04-30T10:37:26.000Z</time>
      </trkpt>
      <trkpt lat="48.6898" lon="1.75325">
        <ele>156</ele>
        <time>2013-04-30T10:37:34.000Z</time>
      </trkpt>
      <trkpt lat="48.68987" lon="1.75334">
        <ele>156.39999389648</ele>
        <time>2013-04-30T10:37:41.000Z</time>
      </trkpt>
      <trkpt lat="48.68993" lon="1.75344">
        <ele>156.80000305176</ele>
        <time>2013-04-30T10:37:47.000Z</time>
      </trkpt>
      <trkpt lat="48.69007" lon="1.75366">
        <ele>157.39999389648</ele>
        <time>2013-04-30T10:37:52.000Z</time>
      </trkpt>
      <trkpt lat="48.69022" lon="1.75389">
        <ele>157.39999389648</ele>
        <time>2013-04-30T10:37:56.000Z</time>
      </trkpt>
      <trkpt lat="48.69046" lon="1.75428">
        <ele>157</ele>
        <time>2013-04-30T10:38:03.000Z</time>
      </trkpt>
      <trkpt lat="48.69054" lon="1.7544">
        <ele>157</ele>
        <time>2013-04-30T10:38:05.000Z</time>
      </trkpt>
      <trkpt lat="48.69068" lon="1.75461">
        <ele>157</ele>
        <time>2013-04-30T10:38:09.000Z</time>
      </trkpt>
      <trkpt lat="48.69089" lon="1.75499">
        <ele>156.80000305176</ele>
        <time>2013-04-30T10:38:15.000Z</time>
      </trkpt>
      <trkpt lat="48.69116" lon="1.75544">
        <ele>158</ele>
        <time>2013-04-30T10:38:22.000Z</time>
      </trkpt>
      <trkpt lat="48.69132" lon="1.75567">
        <ele>157.80000305176</ele>
        <time>2013-04-30T10:38:26.000Z</time>
      </trkpt>
      <trkpt lat="48.6915" lon="1.75598">
        <ele>157.80000305176</ele>
        <time>2013-04-30T10:38:31.000Z</time>
      </trkpt>
      <trkpt lat="48.69156" lon="1.7561">
        <ele>158.19999694824</ele>
        <time>2013-04-30T10:38:33.000Z</time>
      </trkpt>
      <trkpt lat="48.69171" lon="1.75634">
        <ele>159.60000610352</ele>
        <time>2013-04-30T10:38:37.000Z</time>
      </trkpt>
      <trkpt lat="48.69187" lon="1.75662">
        <ele>161</ele>
        <time>2013-04-30T10:38:42.000Z</time>
      </trkpt>
      <trkpt lat="48.69206" lon="1.75693">
        <ele>161.19999694824</ele>
        <time>2013-04-30T10:38:47.000Z</time>
      </trkpt>
      <trkpt lat="48.69217" lon="1.7571">
        <ele>161.39999389648</ele>
        <time>2013-04-30T10:38:50.000Z</time>
      </trkpt>
      <trkpt lat="48.69233" lon="1.75744">
        <ele>161.60000610352</ele>
        <time>2013-04-30T10:38:55.000Z</time>
      </trkpt>
      <trkpt lat="48.69253" lon="1.75775">
        <ele>161.80000305176</ele>
        <time>2013-04-30T10:39:00.000Z</time>
      </trkpt>
      <trkpt lat="48.69257" lon="1.75782">
        <ele>162.19999694824</ele>
        <time>2013-04-30T10:39:01.000Z</time>
      </trkpt>
      <trkpt lat="48.69279" lon="1.75818">
        <ele>163.80000305176</ele>
        <time>2013-04-30T10:39:07.000Z</time>
      </trkpt>
      <trkpt lat="48.69282" lon="1.75839">
        <ele>164.60000610352</ele>
        <time>2013-04-30T10:39:11.000Z</time>
      </trkpt>
      <trkpt lat="48.69276" lon="1.75841">
        <ele>164.60000610352</ele>
        <time>2013-04-30T10:39:14.000Z</time>
      </trkpt>
      <trkpt lat="48.69274" lon="1.75844">
        <ele>164.80000305176</ele>
        <time>2013-04-30T10:39:16.000Z</time>
      </trkpt>
      <trkpt lat="48.69266" lon="1.7585">
        <ele>165</ele>
        <time>2013-04-30T10:39:19.000Z</time>
      </trkpt>
      <trkpt lat="48.69253" lon="1.75872">
        <ele>166.19999694824</ele>
        <time>2013-04-30T10:39:25.000Z</time>
      </trkpt>
      <trkpt lat="48.69251" lon="1.75874">
        <ele>166.39999389648</ele>
        <time>2013-04-30T10:39:26.000Z</time>
      </trkpt>
      <trkpt lat="48.69248" lon="1.75888">
        <ele>167.19999694824</ele>
        <time>2013-04-30T10:39:30.000Z</time>
      </trkpt>
      <trkpt lat="48.6925" lon="1.75897">
        <ele>167.80000305176</ele>
        <time>2013-04-30T10:39:32.000Z</time>
      </trkpt>
      <trkpt lat="48.69252" lon="1.75909">
        <ele>168.39999389648</ele>
        <time>2013-04-30T10:39:35.000Z</time>
      </trkpt>
      <trkpt lat="48.69247" lon="1.75926">
        <ele>169.39999389648</ele>
        <time>2013-04-30T10:39:39.000Z</time>
      </trkpt>
      <trkpt lat="48.69239" lon="1.75947">
        <ele>170.60000610352</ele>
        <time>2013-04-30T10:39:44.000Z</time>
      </trkpt>
      <trkpt lat="48.69242" lon="1.7597">
        <ele>172</ele>
        <time>2013-04-30T10:39:49.000Z</time>
      </trkpt>
      <trkpt lat="48.69242" lon="1.75992">
        <ele>173.19999694824</ele>
        <time>2013-04-30T10:39:54.000Z</time>
      </trkpt>
      <trkpt lat="48.69238" lon="1.76008">
        <ele>174</ele>
        <time>2013-04-30T10:39:58.000Z</time>
      </trkpt>
      <trkpt lat="48.69236" lon="1.7602">
        <ele>174.80000305176</ele>
        <time>2013-04-30T10:40:01.000Z</time>
      </trkpt>
      <trkpt lat="48.69236" lon="1.76035">
        <ele>175.60000610352</ele>
        <time>2013-04-30T10:40:05.000Z</time>
      </trkpt>
      <trkpt lat="48.69234" lon="1.76062">
        <ele>177.19999694824</ele>
        <time>2013-04-30T10:40:11.000Z</time>
      </trkpt>
      <trkpt lat="48.69232" lon="1.76092">
        <ele>178.60000610352</ele>
        <time>2013-04-30T10:40:17.000Z</time>
      </trkpt>
      <trkpt lat="48.69226" lon="1.76113">
        <ele>179.19999694824</ele>
        <time>2013-04-30T10:40:22.000Z</time>
      </trkpt>
      <trkpt lat="48.69221" lon="1.76138">
        <ele>180</ele>
        <time>2013-04-30T10:40:27.000Z</time>
      </trkpt>
      <trkpt lat="48.69219" lon="1.76161">
        <ele>181</ele>
        <time>2013-04-30T10:40:32.000Z</time>
      </trkpt>
      <trkpt lat="48.69214" lon="1.76183">
        <ele>181.19999694824</ele>
        <time>2013-04-30T10:40:37.000Z</time>
      </trkpt>
      <trkpt lat="48.69208" lon="1.76207">
        <ele>181.60000610352</ele>
        <time>2013-04-30T10:40:43.000Z</time>
      </trkpt>
      <trkpt lat="48.69205" lon="1.76228">
        <ele>182</ele>
        <time>2013-04-30T10:40:47.000Z</time>
      </trkpt>
      <trkpt lat="48.692" lon="1.7626">
        <ele>182.39999389648</ele>
        <time>2013-04-30T10:40:53.000Z</time>
      </trkpt>
      <trkpt lat="48.69194" lon="1.76285">
        <ele>182.19999694824</ele>
        <time>2013-04-30T10:40:58.000Z</time>
      </trkpt>
      <trkpt lat="48.69191" lon="1.76307">
        <ele>182</ele>
        <time>2013-04-30T10:41:02.000Z</time>
      </trkpt>
      <trkpt lat="48.69187" lon="1.76327">
        <ele>181.80000305176</ele>
        <time>2013-04-30T10:41:06.000Z</time>
      </trkpt>
      <trkpt lat="48.69181" lon="1.76354">
        <ele>181</ele>
        <time>2013-04-30T10:41:11.000Z</time>
      </trkpt>
      <trkpt lat="48.69172" lon="1.76388">
        <ele>180</ele>
        <time>2013-04-30T10:41:16.000Z</time>
      </trkpt>
      <trkpt lat="48.69167" lon="1.76414">
        <ele>179</ele>
        <time>2013-04-30T10:41:19.000Z</time>
      </trkpt>
      <trkpt lat="48.69163" lon="1.76434">
        <ele>178.60000610352</ele>
        <time>2013-04-30T10:41:21.000Z</time>
      </trkpt>
      <trkpt lat="48.69157" lon="1.76464">
        <ele>177.80000305176</ele>
        <time>2013-04-30T10:41:25.000Z</time>
      </trkpt>
      <trkpt lat="48.69151" lon="1.76494">
        <ele>177</ele>
        <time>2013-04-30T10:41:31.000Z</time>
      </trkpt>
      <trkpt lat="48.69145" lon="1.7653">
        <ele>176.39999389648</ele>
        <time>2013-04-30T10:41:37.000Z</time>
      </trkpt>
      <trkpt lat="48.69137" lon="1.76556">
        <ele>175.80000305176</ele>
        <time>2013-04-30T10:41:42.000Z</time>
      </trkpt>
      <trkpt lat="48.69132" lon="1.76586">
        <ele>175</ele>
        <time>2013-04-30T10:41:47.000Z</time>
      </trkpt>
      <trkpt lat="48.69127" lon="1.76612">
        <ele>174</ele>
        <time>2013-04-30T10:41:52.000Z</time>
      </trkpt>
      <trkpt lat="48.69123" lon="1.76632">
        <ele>173</ele>
        <time>2013-04-30T10:41:57.000Z</time>
      </trkpt>
      <trkpt lat="48.6912" lon="1.7665">
        <ele>172.39999389648</ele>
        <time>2013-04-30T10:42:03.000Z</time>
      </trkpt>
      <trkpt lat="48.69118" lon="1.76661">
        <ele>172</ele>
        <time>2013-04-30T10:42:08.000Z</time>
      </trkpt>
      <trkpt lat="48.69116" lon="1.7668">
        <ele>171</ele>
        <time>2013-04-30T10:42:16.000Z</time>
      </trkpt>
      <trkpt lat="48.69113" lon="1.76696">
        <ele>170</ele>
        <time>2013-04-30T10:42:23.000Z</time>
      </trkpt>
      <trkpt lat="48.69109" lon="1.76709">
        <ele>169.19999694824</ele>
        <time>2013-04-30T10:42:29.000Z</time>
      </trkpt>
      <trkpt lat="48.69105" lon="1.76727">
        <ele>168.19999694824</ele>
        <time>2013-04-30T10:42:36.000Z</time>
      </trkpt>
      <trkpt lat="48.69101" lon="1.76746">
        <ele>167.19999694824</ele>
        <time>2013-04-30T10:42:44.000Z</time>
      </trkpt>
      <trkpt lat="48.69099" lon="1.76755">
        <ele>166.80000305176</ele>
        <time>2013-04-30T10:42:48.000Z</time>
      </trkpt>
      <trkpt lat="48.69099" lon="1.76758">
        <ele>166.60000610352</ele>
        <time>2013-04-30T10:42:52.000Z</time>
      </trkpt>
      <trkpt lat="48.69099" lon="1.76762">
        <ele>166.60000610352</ele>
        <time>2013-04-30T10:42:58.000Z</time>
      </trkpt>
      <trkpt lat="48.69095" lon="1.76777">
        <ele>166.19999694824</ele>
        <time>2013-04-30T10:43:03.000Z</time>
      </trkpt>
      <trkpt lat="48.69095" lon="1.76779">
        <ele>166.19999694824</ele>
        <time>2013-04-30T10:43:04.000Z</time>
      </trkpt>
      <trkpt lat="48.69091" lon="1.768">
        <ele>165.60000610352</ele>
        <time>2013-04-30T10:43:13.000Z</time>
      </trkpt>
      <trkpt lat="48.69087" lon="1.76817">
        <ele>165.19999694824</ele>
        <time>2013-04-30T10:43:21.000Z</time>
      </trkpt>
      <trkpt lat="48.69083" lon="1.76838">
        <ele>164.80000305176</ele>
        <time>2013-04-30T10:43:30.000Z</time>
      </trkpt>
      <trkpt lat="48.69078" lon="1.76858">
        <ele>164</ele>
        <time>2013-04-30T10:43:39.000Z</time>
      </trkpt>
      <trkpt lat="48.69077" lon="1.76866">
        <ele>163.80000305176</ele>
        <time>2013-04-30T10:43:45.000Z</time>
      </trkpt>
      <trkpt lat="48.6909" lon="1.76872">
        <ele>163.39999389648</ele>
        <time>2013-04-30T10:44:53.000Z</time>
      </trkpt>
      <trkpt lat="48.69095" lon="1.76876">
        <ele>163.39999389648</ele>
        <time>2013-04-30T10:44:58.000Z</time>
      </trkpt>
      <trkpt lat="48.69102" lon="1.76882">
        <ele>163.19999694824</ele>
        <time>2013-04-30T10:45:05.000Z</time>
      </trkpt>
      <trkpt lat="48.69109" lon="1.76886">
        <ele>163</ele>
        <time>2013-04-30T10:45:11.000Z</time>
      </trkpt>
      <trkpt lat="48.69121" lon="1.76886">
        <ele>163.19999694824</ele>
        <time>2013-04-30T10:45:18.000Z</time>
      </trkpt>
      <trkpt lat="48.69128" lon="1.76888">
        <ele>163.19999694824</ele>
        <time>2013-04-30T10:45:23.000Z</time>
      </trkpt>
      <trkpt lat="48.69137" lon="1.7689">
        <ele>163</ele>
        <time>2013-04-30T10:45:29.000Z</time>
      </trkpt>
      <trkpt lat="48.69147" lon="1.76901">
        <ele>163</ele>
        <time>2013-04-30T10:45:37.000Z</time>
      </trkpt>
      <trkpt lat="48.69156" lon="1.7691">
        <ele>162.80000305176</ele>
        <time>2013-04-30T10:45:44.000Z</time>
      </trkpt>
      <trkpt lat="48.69163" lon="1.76909">
        <ele>163</ele>
        <time>2013-04-30T10:45:47.000Z</time>
      </trkpt>
      <trkpt lat="48.69177" lon="1.76914">
        <ele>163.19999694824</ele>
        <time>2013-04-30T10:45:56.000Z</time>
      </trkpt>
      <trkpt lat="48.69187" lon="1.76923">
        <ele>163.39999389648</ele>
        <time>2013-04-30T10:46:03.000Z</time>
      </trkpt>
      <trkpt lat="48.69194" lon="1.76933">
        <ele>163.60000610352</ele>
        <time>2013-04-30T10:46:09.000Z</time>
      </trkpt>
      <trkpt lat="48.69207" lon="1.7694">
        <ele>163.80000305176</ele>
        <time>2013-04-30T10:46:16.000Z</time>
      </trkpt>
      <trkpt lat="48.69216" lon="1.76945">
        <ele>164</ele>
        <time>2013-04-30T10:46:22.000Z</time>
      </trkpt>
      <trkpt lat="48.69223" lon="1.76949">
        <ele>164.19999694824</ele>
        <time>2013-04-30T10:46:27.000Z</time>
      </trkpt>
      <trkpt lat="48.69228" lon="1.76954">
        <ele>164.39999389648</ele>
        <time>2013-04-30T10:46:31.000Z</time>
      </trkpt>
      <trkpt lat="48.69242" lon="1.7696">
        <ele>164.80000305176</ele>
        <time>2013-04-30T10:46:39.000Z</time>
      </trkpt>
      <trkpt lat="48.69249" lon="1.76967">
        <ele>164.80000305176</ele>
        <time>2013-04-30T10:46:44.000Z</time>
      </trkpt>
      <trkpt lat="48.69259" lon="1.76977">
        <ele>165.39999389648</ele>
        <time>2013-04-30T10:46:52.000Z</time>
      </trkpt>
      <trkpt lat="48.69267" lon="1.76983">
        <ele>166</ele>
        <time>2013-04-30T10:46:58.000Z</time>
      </trkpt>
      <trkpt lat="48.69274" lon="1.76986">
        <ele>166.39999389648</ele>
        <time>2013-04-30T10:47:03.000Z</time>
      </trkpt>
      <trkpt lat="48.69286" lon="1.7698">
        <ele>167.19999694824</ele>
        <time>2013-04-30T10:47:12.000Z</time>
      </trkpt>
      <trkpt lat="48.69291" lon="1.76976">
        <ele>167.60000610352</ele>
        <time>2013-04-30T10:47:16.000Z</time>
      </trkpt>
      <trkpt lat="48.69301" lon="1.76971">
        <ele>168.39999389648</ele>
        <time>2013-04-30T10:47:22.000Z</time>
      </trkpt>
      <trkpt lat="48.69312" lon="1.76962">
        <ele>169.19999694824</ele>
        <time>2013-04-30T10:47:30.000Z</time>
      </trkpt>
      <trkpt lat="48.69318" lon="1.76956">
        <ele>169.80000305176</ele>
        <time>2013-04-30T10:47:36.000Z</time>
      </trkpt>
      <trkpt lat="48.69323" lon="1.76949">
        <ele>170.39999389648</ele>
        <time>2013-04-30T10:47:42.000Z</time>
      </trkpt>
      <trkpt lat="48.69328" lon="1.76945">
        <ele>170.80000305176</ele>
        <time>2013-04-30T10:47:46.000Z</time>
      </trkpt>
      <trkpt lat="48.69334" lon="1.76938">
        <ele>171.39999389648</ele>
        <time>2013-04-30T10:47:52.000Z</time>
      </trkpt>
      <trkpt lat="48.69344" lon="1.76927">
        <ele>171.80000305176</ele>
        <time>2013-04-30T10:48:00.000Z</time>
      </trkpt>
      <trkpt lat="48.69351" lon="1.76922">
        <ele>172.19999694824</ele>
        <time>2013-04-30T10:48:05.000Z</time>
      </trkpt>
      <trkpt lat="48.69362" lon="1.76914">
        <ele>172.60000610352</ele>
        <time>2013-04-30T10:48:12.000Z</time>
      </trkpt>
      <trkpt lat="48.69369" lon="1.76909">
        <ele>172.60000610352</ele>
        <time>2013-04-30T10:48:18.000Z</time>
      </trkpt>
      <trkpt lat="48.69379" lon="1.76901">
        <ele>173</ele>
        <time>2013-04-30T10:48:26.000Z</time>
      </trkpt>
      <trkpt lat="48.6939" lon="1.76893">
        <ele>173.19999694824</ele>
        <time>2013-04-30T10:48:34.000Z</time>
      </trkpt>
      <trkpt lat="48.69399" lon="1.76888">
        <ele>173.60000610352</ele>
        <time>2013-04-30T10:48:41.000Z</time>
      </trkpt>
      <trkpt lat="48.69401" lon="1.76887">
        <ele>173.60000610352</ele>
        <time>2013-04-30T10:48:42.000Z</time>
      </trkpt>
      <trkpt lat="48.69403" lon="1.76886">
        <ele>173.80000305176</ele>
        <time>2013-04-30T10:48:44.000Z</time>
      </trkpt>
      <trkpt lat="48.69413" lon="1.7688">
        <ele>174.19999694824</ele>
        <time>2013-04-30T10:48:51.000Z</time>
      </trkpt>
      <trkpt lat="48.6942" lon="1.76875">
        <ele>174.39999389648</ele>
        <time>2013-04-30T10:48:58.000Z</time>
      </trkpt>
      <trkpt lat="48.69428" lon="1.7687">
        <ele>174.19999694824</ele>
        <time>2013-04-30T10:49:04.000Z</time>
      </trkpt>
      <trkpt lat="48.69432" lon="1.76865">
        <ele>174.19999694824</ele>
        <time>2013-04-30T10:49:09.000Z</time>
      </trkpt>
      <trkpt lat="48.69438" lon="1.76857">
        <ele>174.19999694824</ele>
        <time>2013-04-30T10:49:15.000Z</time>
      </trkpt>
      <trkpt lat="48.69446" lon="1.76851">
        <ele>174.19999694824</ele>
        <time>2013-04-30T10:49:21.000Z</time>
      </trkpt>
      <trkpt lat="48.69455" lon="1.76841">
        <ele>174.39999389648</ele>
        <time>2013-04-30T10:49:30.000Z</time>
      </trkpt>
      <trkpt lat="48.69457" lon="1.7684">
        <ele>174.39999389648</ele>
        <time>2013-04-30T10:49:31.000Z</time>
      </trkpt>
      <trkpt lat="48.69459" lon="1.76838">
        <ele>174.39999389648</ele>
        <time>2013-04-30T10:49:33.000Z</time>
      </trkpt>
      <trkpt lat="48.69464" lon="1.76832">
        <ele>174.39999389648</ele>
        <time>2013-04-30T10:49:39.000Z</time>
      </trkpt>
      <trkpt lat="48.6947" lon="1.76823">
        <ele>174.39999389648</ele>
        <time>2013-04-30T10:49:45.000Z</time>
      </trkpt>
      <trkpt lat="48.69471" lon="1.76822">
        <ele>174.60000610352</ele>
        <time>2013-04-30T10:49:46.000Z</time>
      </trkpt>
      <trkpt lat="48.69481" lon="1.76807">
        <ele>174.80000305176</ele>
        <time>2013-04-30T10:49:55.000Z</time>
      </trkpt>
      <trkpt lat="48.6949" lon="1.76795">
        <ele>175.19999694824</ele>
        <time>2013-04-30T10:50:03.000Z</time>
      </trkpt>
      <trkpt lat="48.69496" lon="1.76785">
        <ele>175.60000610352</ele>
        <time>2013-04-30T10:50:10.000Z</time>
      </trkpt>
      <trkpt lat="48.69501" lon="1.76778">
        <ele>175.80000305176</ele>
        <time>2013-04-30T10:50:14.000Z</time>
      </trkpt>
      <trkpt lat="48.69509" lon="1.76768">
        <ele>176.19999694824</ele>
        <time>2013-04-30T10:50:21.000Z</time>
      </trkpt>
      <trkpt lat="48.69516" lon="1.76757">
        <ele>176.60000610352</ele>
        <time>2013-04-30T10:50:28.000Z</time>
      </trkpt>
      <trkpt lat="48.69523" lon="1.76745">
        <ele>177</ele>
        <time>2013-04-30T10:50:35.000Z</time>
      </trkpt>
      <trkpt lat="48.69528" lon="1.76734">
        <ele>177.39999389648</ele>
        <time>2013-04-30T10:50:41.000Z</time>
      </trkpt>
      <trkpt lat="48.69533" lon="1.76726">
        <ele>177.60000610352</ele>
        <time>2013-04-30T10:50:46.000Z</time>
      </trkpt>
      <trkpt lat="48.69535" lon="1.76723">
        <ele>177.60000610352</ele>
        <time>2013-04-30T10:50:48.000Z</time>
      </trkpt>
      <trkpt lat="48.69539" lon="1.76715">
        <ele>177.80000305176</ele>
        <time>2013-04-30T10:50:54.000Z</time>
      </trkpt>
      <trkpt lat="48.69541" lon="1.76709">
        <ele>177.80000305176</ele>
        <time>2013-04-30T10:50:58.000Z</time>
      </trkpt>
      <trkpt lat="48.69547" lon="1.76697">
        <ele>178</ele>
        <time>2013-04-30T10:51:06.000Z</time>
      </trkpt>
      <trkpt lat="48.69551" lon="1.76687">
        <ele>178.19999694824</ele>
        <time>2013-04-30T10:51:11.000Z</time>
      </trkpt>
      <trkpt lat="48.69553" lon="1.76673">
        <ele>178.39999389648</ele>
        <time>2013-04-30T10:51:19.000Z</time>
      </trkpt>
      <trkpt lat="48.69558" lon="1.76662">
        <ele>178.39999389648</ele>
        <time>2013-04-30T10:51:25.000Z</time>
      </trkpt>
      <trkpt lat="48.69559" lon="1.7666">
        <ele>178.39999389648</ele>
        <time>2013-04-30T10:51:26.000Z</time>
      </trkpt>
      <trkpt lat="48.69562" lon="1.76655">
        <ele>178.39999389648</ele>
        <time>2013-04-30T10:51:28.000Z</time>
      </trkpt>
      <trkpt lat="48.69564" lon="1.7665">
        <ele>178.39999389648</ele>
        <time>2013-04-30T10:51:31.000Z</time>
      </trkpt>
      <trkpt lat="48.69567" lon="1.76637">
        <ele>178.19999694824</ele>
        <time>2013-04-30T10:51:37.000Z</time>
      </trkpt>
      <trkpt lat="48.6957" lon="1.76627">
        <ele>178.19999694824</ele>
        <time>2013-04-30T10:51:43.000Z</time>
      </trkpt>
      <trkpt lat="48.69571" lon="1.76622">
        <ele>178.19999694824</ele>
        <time>2013-04-30T10:51:45.000Z</time>
      </trkpt>
      <trkpt lat="48.69574" lon="1.76608">
        <ele>178</ele>
        <time>2013-04-30T10:51:52.000Z</time>
      </trkpt>
      <trkpt lat="48.69576" lon="1.76601">
        <ele>178</ele>
        <time>2013-04-30T10:51:56.000Z</time>
      </trkpt>
      <trkpt lat="48.69577" lon="1.76595">
        <ele>178</ele>
        <time>2013-04-30T10:51:59.000Z</time>
      </trkpt>
      <trkpt lat="48.69578" lon="1.76587">
        <ele>178</ele>
        <time>2013-04-30T10:52:04.000Z</time>
      </trkpt>
      <trkpt lat="48.69582" lon="1.76573">
        <ele>178</ele>
        <time>2013-04-30T10:52:12.000Z</time>
      </trkpt>
      <trkpt lat="48.69582" lon="1.76572">
        <ele>178</ele>
        <time>2013-04-30T10:52:13.000Z</time>
      </trkpt>
      <trkpt lat="48.69585" lon="1.76564">
        <ele>178.19999694824</ele>
        <time>2013-04-30T10:52:18.000Z</time>
      </trkpt>
      <trkpt lat="48.69588" lon="1.76551">
        <ele>178.39999389648</ele>
        <time>2013-04-30T10:52:25.000Z</time>
      </trkpt>
      <trkpt lat="48.69589" lon="1.76544">
        <ele>178.39999389648</ele>
        <time>2013-04-30T10:52:28.000Z</time>
      </trkpt>
      <trkpt lat="48.69591" lon="1.76534">
        <ele>178.60000610352</ele>
        <time>2013-04-30T10:52:33.000Z</time>
      </trkpt>
      <trkpt lat="48.69593" lon="1.76526">
        <ele>178.80000305176</ele>
        <time>2013-04-30T10:52:37.000Z</time>
      </trkpt>
      <trkpt lat="48.69599" lon="1.76513">
        <ele>179</ele>
        <time>2013-04-30T10:52:45.000Z</time>
      </trkpt>
      <trkpt lat="48.696" lon="1.7651">
        <ele>179.19999694824</ele>
        <time>2013-04-30T10:52:47.000Z</time>
      </trkpt>
      <trkpt lat="48.696" lon="1.76508">
        <ele>179.19999694824</ele>
        <time>2013-04-30T10:52:49.000Z</time>
      </trkpt>
      <trkpt lat="48.69602" lon="1.765">
        <ele>179.39999389648</ele>
        <time>2013-04-30T10:52:54.000Z</time>
      </trkpt>
      <trkpt lat="48.69606" lon="1.76483">
        <ele>180</ele>
        <time>2013-04-30T10:53:02.000Z</time>
      </trkpt>
      <trkpt lat="48.69607" lon="1.76479">
        <ele>180</ele>
        <time>2013-04-30T10:53:04.000Z</time>
      </trkpt>
      <trkpt lat="48.69608" lon="1.76474">
        <ele>180.19999694824</ele>
        <time>2013-04-30T10:53:06.000Z</time>
      </trkpt>
      <trkpt lat="48.69612" lon="1.76462">
        <ele>180.60000610352</ele>
        <time>2013-04-30T10:53:12.000Z</time>
      </trkpt>
      <trkpt lat="48.69614" lon="1.76454">
        <ele>180.80000305176</ele>
        <time>2013-04-30T10:53:16.000Z</time>
      </trkpt>
      <trkpt lat="48.69616" lon="1.76445">
        <ele>181.19999694824</ele>
        <time>2013-04-30T10:53:21.000Z</time>
      </trkpt>
      <trkpt lat="48.69618" lon="1.76438">
        <ele>181.39999389648</ele>
        <time>2013-04-30T10:53:25.000Z</time>
      </trkpt>
      <trkpt lat="48.69625" lon="1.76428">
        <ele>181.60000610352</ele>
        <time>2013-04-30T10:53:33.000Z</time>
      </trkpt>
      <trkpt lat="48.69629" lon="1.76422">
        <ele>181.80000305176</ele>
        <time>2013-04-30T10:53:38.000Z</time>
      </trkpt>
      <trkpt lat="48.69638" lon="1.76429">
        <ele>181.60000610352</ele>
        <time>2013-04-30T10:53:45.000Z</time>
      </trkpt>
      <trkpt lat="48.69645" lon="1.76437">
        <ele>181.60000610352</ele>
        <time>2013-04-30T10:53:51.000Z</time>
      </trkpt>
      <trkpt lat="48.69649" lon="1.76442">
        <ele>181.39999389648</ele>
        <time>2013-04-30T10:53:54.000Z</time>
      </trkpt>
      <trkpt lat="48.69652" lon="1.76444">
        <ele>181.39999389648</ele>
        <time>2013-04-30T10:53:56.000Z</time>
      </trkpt>
      <trkpt lat="48.69654" lon="1.76447">
        <ele>181.39999389648</ele>
        <time>2013-04-30T10:53:58.000Z</time>
      </trkpt>
      <trkpt lat="48.69663" lon="1.76457">
        <ele>181.39999389648</ele>
        <time>2013-04-30T10:54:05.000Z</time>
      </trkpt>
      <trkpt lat="48.69666" lon="1.76464">
        <ele>181.39999389648</ele>
        <time>2013-04-30T10:54:09.000Z</time>
      </trkpt>
      <trkpt lat="48.69668" lon="1.76471">
        <ele>181.39999389648</ele>
        <time>2013-04-30T10:54:13.000Z</time>
      </trkpt>
      <trkpt lat="48.69674" lon="1.76479">
        <ele>181.39999389648</ele>
        <time>2013-04-30T10:54:18.000Z</time>
      </trkpt>
      <trkpt lat="48.69682" lon="1.76491">
        <ele>181.60000610352</ele>
        <time>2013-04-30T10:54:26.000Z</time>
      </trkpt>
      <trkpt lat="48.69682" lon="1.76493">
        <ele>181.80000305176</ele>
        <time>2013-04-30T10:54:27.000Z</time>
      </trkpt>
      <trkpt lat="48.69689" lon="1.76506">
        <ele>181.80000305176</ele>
        <time>2013-04-30T10:54:34.000Z</time>
      </trkpt>
      <trkpt lat="48.69693" lon="1.76514">
        <ele>181.80000305176</ele>
        <time>2013-04-30T10:54:39.000Z</time>
      </trkpt>
      <trkpt lat="48.69701" lon="1.76523">
        <ele>182.19999694824</ele>
        <time>2013-04-30T10:54:45.000Z</time>
      </trkpt>
      <trkpt lat="48.69703" lon="1.76526">
        <ele>182.19999694824</ele>
        <time>2013-04-30T10:54:47.000Z</time>
      </trkpt>
      <trkpt lat="48.69709" lon="1.76535">
        <ele>182.39999389648</ele>
        <time>2013-04-30T10:54:53.000Z</time>
      </trkpt>
      <trkpt lat="48.69713" lon="1.76543">
        <ele>182.39999389648</ele>
        <time>2013-04-30T10:54:58.000Z</time>
      </trkpt>
      <trkpt lat="48.69716" lon="1.76547">
        <ele>182.39999389648</ele>
        <time>2013-04-30T10:55:00.000Z</time>
      </trkpt>
      <trkpt lat="48.69719" lon="1.76554">
        <ele>182.60000610352</ele>
        <time>2013-04-30T10:55:04.000Z</time>
      </trkpt>
      <trkpt lat="48.69726" lon="1.76566">
        <ele>182.80000305176</ele>
        <time>2013-04-30T10:55:11.000Z</time>
      </trkpt>
      <trkpt lat="48.69728" lon="1.7657">
        <ele>182.80000305176</ele>
        <time>2013-04-30T10:55:14.000Z</time>
      </trkpt>
      <trkpt lat="48.69735" lon="1.76583">
        <ele>183</ele>
        <time>2013-04-30T10:55:23.000Z</time>
      </trkpt>
      <trkpt lat="48.69737" lon="1.76585">
        <ele>183.19999694824</ele>
        <time>2013-04-30T10:55:25.000Z</time>
      </trkpt>
      <trkpt lat="48.69745" lon="1.76592">
        <ele>183.60000610352</ele>
        <time>2013-04-30T10:55:31.000Z</time>
      </trkpt>
      <trkpt lat="48.69754" lon="1.7661">
        <ele>183.60000610352</ele>
        <time>2013-04-30T10:55:40.000Z</time>
      </trkpt>
      <trkpt lat="48.69759" lon="1.76618">
        <ele>183.60000610352</ele>
        <time>2013-04-30T10:55:45.000Z</time>
      </trkpt>
      <trkpt lat="48.69768" lon="1.76627">
        <ele>183.39999389648</ele>
        <time>2013-04-30T10:55:51.000Z</time>
      </trkpt>
      <trkpt lat="48.69776" lon="1.76636">
        <ele>183.39999389648</ele>
        <time>2013-04-30T10:55:58.000Z</time>
      </trkpt>
      <trkpt lat="48.69783" lon="1.76644">
        <ele>183.39999389648</ele>
        <time>2013-04-30T10:56:04.000Z</time>
      </trkpt>
      <trkpt lat="48.69785" lon="1.76647">
        <ele>183.39999389648</ele>
        <time>2013-04-30T10:56:06.000Z</time>
      </trkpt>
      <trkpt lat="48.69792" lon="1.76656">
        <ele>183.39999389648</ele>
        <time>2013-04-30T10:56:12.000Z</time>
      </trkpt>
      <trkpt lat="48.69802" lon="1.76665">
        <ele>183.60000610352</ele>
        <time>2013-04-30T10:56:19.000Z</time>
      </trkpt>
      <trkpt lat="48.69807" lon="1.76671">
        <ele>183.60000610352</ele>
        <time>2013-04-30T10:56:23.000Z</time>
      </trkpt>
      <trkpt lat="48.69814" lon="1.76678">
        <ele>183.80000305176</ele>
        <time>2013-04-30T10:56:28.000Z</time>
      </trkpt>
      <trkpt lat="48.6982" lon="1.76686">
        <ele>184.19999694824</ele>
        <time>2013-04-30T10:56:33.000Z</time>
      </trkpt>
      <trkpt lat="48.69829" lon="1.76696">
        <ele>184.60000610352</ele>
        <time>2013-04-30T10:56:40.000Z</time>
      </trkpt>
      <trkpt lat="48.69837" lon="1.76707">
        <ele>184.80000305176</ele>
        <time>2013-04-30T10:56:47.000Z</time>
      </trkpt>
      <trkpt lat="48.69846" lon="1.76717">
        <ele>184.80000305176</ele>
        <time>2013-04-30T10:56:54.000Z</time>
      </trkpt>
      <trkpt lat="48.69853" lon="1.76727">
        <ele>185</ele>
        <time>2013-04-30T10:57:01.000Z</time>
      </trkpt>
      <trkpt lat="48.6986" lon="1.76736">
        <ele>185</ele>
        <time>2013-04-30T10:57:07.000Z</time>
      </trkpt>
      <trkpt lat="48.69868" lon="1.76743">
        <ele>185</ele>
        <time>2013-04-30T10:57:12.000Z</time>
      </trkpt>
      <trkpt lat="48.69878" lon="1.76753">
        <ele>184.80000305176</ele>
        <time>2013-04-30T10:57:19.000Z</time>
      </trkpt>
      <trkpt lat="48.69887" lon="1.76763">
        <ele>184.19999694824</ele>
        <time>2013-04-30T10:57:24.000Z</time>
      </trkpt>
      <trkpt lat="48.69895" lon="1.76771">
        <ele>183.60000610352</ele>
        <time>2013-04-30T10:57:29.000Z</time>
      </trkpt>
      <trkpt lat="48.69903" lon="1.76782">
        <ele>183</ele>
        <time>2013-04-30T10:57:36.000Z</time>
      </trkpt>
      <trkpt lat="48.69909" lon="1.76785">
        <ele>182.80000305176</ele>
        <time>2013-04-30T10:57:39.000Z</time>
      </trkpt>
      <trkpt lat="48.69917" lon="1.76791">
        <ele>182.39999389648</ele>
        <time>2013-04-30T10:57:44.000Z</time>
      </trkpt>
      <trkpt lat="48.69919" lon="1.76792">
        <ele>182.39999389648</ele>
        <time>2013-04-30T10:57:45.000Z</time>
      </trkpt>
      <trkpt lat="48.69925" lon="1.76801">
        <ele>182.39999389648</ele>
        <time>2013-04-30T10:57:51.000Z</time>
      </trkpt>
      <trkpt lat="48.69932" lon="1.76808">
        <ele>182.39999389648</ele>
        <time>2013-04-30T10:57:56.000Z</time>
      </trkpt>
      <trkpt lat="48.69939" lon="1.76816">
        <ele>182.19999694824</ele>
        <time>2013-04-30T10:58:02.000Z</time>
      </trkpt>
      <trkpt lat="48.69945" lon="1.76823">
        <ele>182.19999694824</ele>
        <time>2013-04-30T10:58:06.000Z</time>
      </trkpt>
      <trkpt lat="48.69953" lon="1.76834">
        <ele>182.19999694824</ele>
        <time>2013-04-30T10:58:13.000Z</time>
      </trkpt>
      <trkpt lat="48.6996" lon="1.76845">
        <ele>182</ele>
        <time>2013-04-30T10:58:19.000Z</time>
      </trkpt>
      <trkpt lat="48.69968" lon="1.76853">
        <ele>182</ele>
        <time>2013-04-30T10:58:25.000Z</time>
      </trkpt>
      <trkpt lat="48.69974" lon="1.76858">
        <ele>182.19999694824</ele>
        <time>2013-04-30T10:58:30.000Z</time>
      </trkpt>
      <trkpt lat="48.69982" lon="1.76867">
        <ele>182.19999694824</ele>
        <time>2013-04-30T10:58:37.000Z</time>
      </trkpt>
      <trkpt lat="48.69992" lon="1.76879">
        <ele>182.39999389648</ele>
        <time>2013-04-30T10:58:45.000Z</time>
      </trkpt>
      <trkpt lat="48.70001" lon="1.76887">
        <ele>182.60000610352</ele>
        <time>2013-04-30T10:58:52.000Z</time>
      </trkpt>
      <trkpt lat="48.70011" lon="1.76899">
        <ele>182.60000610352</ele>
        <time>2013-04-30T10:59:00.000Z</time>
      </trkpt>
      <trkpt lat="48.70013" lon="1.76901">
        <ele>182.80000305176</ele>
        <time>2013-04-30T10:59:02.000Z</time>
      </trkpt>
      <trkpt lat="48.70024" lon="1.7691">
        <ele>182.80000305176</ele>
        <time>2013-04-30T10:59:09.000Z</time>
      </trkpt>
      <trkpt lat="48.70027" lon="1.76914">
        <ele>183</ele>
        <time>2013-04-30T10:59:13.000Z</time>
      </trkpt>
      <trkpt lat="48.70028" lon="1.76914">
        <ele>183</ele>
        <time>2013-04-30T10:59:15.000Z</time>
      </trkpt>
      <trkpt lat="48.7003" lon="1.76915">
        <ele>183</ele>
        <time>2013-04-30T10:59:19.000Z</time>
      </trkpt>
      <trkpt lat="48.70031" lon="1.76917">
        <ele>183</ele>
        <time>2013-04-30T10:59:20.000Z</time>
      </trkpt>
      <trkpt lat="48.70031" lon="1.76917">
        <ele>183</ele>
        <time>2013-04-30T10:59:21.000Z</time>
      </trkpt>
      <trkpt lat="48.7004" lon="1.76924">
        <ele>183</ele>
        <time>2013-04-30T11:01:35.000Z</time>
      </trkpt>
      <trkpt lat="48.70041" lon="1.76925">
        <ele>183</ele>
        <time>2013-04-30T11:01:36.000Z</time>
      </trkpt>
      <trkpt lat="48.70047" lon="1.76934">
        <ele>182.80000305176</ele>
        <time>2013-04-30T11:01:41.000Z</time>
      </trkpt>
      <trkpt lat="48.70054" lon="1.76944">
        <ele>182.60000610352</ele>
        <time>2013-04-30T11:01:47.000Z</time>
      </trkpt>
      <trkpt lat="48.70062" lon="1.76953">
        <ele>182.19999694824</ele>
        <time>2013-04-30T11:01:54.000Z</time>
      </trkpt>
      <trkpt lat="48.7007" lon="1.76962">
        <ele>182</ele>
        <time>2013-04-30T11:02:00.000Z</time>
      </trkpt>
      <trkpt lat="48.70078" lon="1.76969">
        <ele>181.60000610352</ele>
        <time>2013-04-30T11:02:06.000Z</time>
      </trkpt>
      <trkpt lat="48.70084" lon="1.76976">
        <ele>181.39999389648</ele>
        <time>2013-04-30T11:02:12.000Z</time>
      </trkpt>
      <trkpt lat="48.7009" lon="1.76983">
        <ele>181</ele>
        <time>2013-04-30T11:02:17.000Z</time>
      </trkpt>
      <trkpt lat="48.70095" lon="1.76989">
        <ele>180.60000610352</ele>
        <time>2013-04-30T11:02:21.000Z</time>
      </trkpt>
      <trkpt lat="48.70104" lon="1.77002">
        <ele>180</ele>
        <time>2013-04-30T11:02:30.000Z</time>
      </trkpt>
      <trkpt lat="48.70113" lon="1.77012">
        <ele>179.60000610352</ele>
        <time>2013-04-30T11:02:37.000Z</time>
      </trkpt>
      <trkpt lat="48.70115" lon="1.77015">
        <ele>179.60000610352</ele>
        <time>2013-04-30T11:02:39.000Z</time>
      </trkpt>
      <trkpt lat="48.70126" lon="1.77027">
        <ele>179.19999694824</ele>
        <time>2013-04-30T11:02:48.000Z</time>
      </trkpt>
      <trkpt lat="48.70137" lon="1.77037">
        <ele>178.80000305176</ele>
        <time>2013-04-30T11:02:57.000Z</time>
      </trkpt>
      <trkpt lat="48.70138" lon="1.77038">
        <ele>178.80000305176</ele>
        <time>2013-04-30T11:03:00.000Z</time>
      </trkpt>
      <trkpt lat="48.70139" lon="1.77039">
        <ele>178.80000305176</ele>
        <time>2013-04-30T11:03:03.000Z</time>
      </trkpt>
      <trkpt lat="48.70146" lon="1.77046">
        <ele>178.80000305176</ele>
        <time>2013-04-30T11:03:06.000Z</time>
      </trkpt>
      <trkpt lat="48.70153" lon="1.77056">
        <ele>178.60000610352</ele>
        <time>2013-04-30T11:03:12.000Z</time>
      </trkpt>
      <trkpt lat="48.7016" lon="1.77065">
        <ele>178.39999389648</ele>
        <time>2013-04-30T11:03:18.000Z</time>
      </trkpt>
      <trkpt lat="48.70164" lon="1.77069">
        <ele>178.39999389648</ele>
        <time>2013-04-30T11:03:22.000Z</time>
      </trkpt>
      <trkpt lat="48.7017" lon="1.77073">
        <ele>178.39999389648</ele>
        <time>2013-04-30T11:03:26.000Z</time>
      </trkpt>
      <trkpt lat="48.70175" lon="1.77081">
        <ele>178.60000610352</ele>
        <time>2013-04-30T11:03:31.000Z</time>
      </trkpt>
      <trkpt lat="48.70184" lon="1.77091">
        <ele>179.19999694824</ele>
        <time>2013-04-30T11:03:37.000Z</time>
      </trkpt>
      <trkpt lat="48.70193" lon="1.771">
        <ele>179.80000305176</ele>
        <time>2013-04-30T11:03:44.000Z</time>
      </trkpt>
      <trkpt lat="48.70202" lon="1.7711">
        <ele>180.39999389648</ele>
        <time>2013-04-30T11:03:51.000Z</time>
      </trkpt>
      <trkpt lat="48.70216" lon="1.77121">
        <ele>181.19999694824</ele>
        <time>2013-04-30T11:04:00.000Z</time>
      </trkpt>
      <trkpt lat="48.70225" lon="1.7713">
        <ele>181.60000610352</ele>
        <time>2013-04-30T11:04:07.000Z</time>
      </trkpt>
      <trkpt lat="48.70241" lon="1.77147">
        <ele>182</ele>
        <time>2013-04-30T11:04:18.000Z</time>
      </trkpt>
      <trkpt lat="48.70251" lon="1.7716">
        <ele>182</ele>
        <time>2013-04-30T11:04:26.000Z</time>
      </trkpt>
      <trkpt lat="48.70264" lon="1.77174">
        <ele>181.60000610352</ele>
        <time>2013-04-30T11:04:35.000Z</time>
      </trkpt>
      <trkpt lat="48.70275" lon="1.77186">
        <ele>181</ele>
        <time>2013-04-30T11:04:43.000Z</time>
      </trkpt>
      <trkpt lat="48.70287" lon="1.772">
        <ele>180.39999389648</ele>
        <time>2013-04-30T11:04:52.000Z</time>
      </trkpt>
      <trkpt lat="48.70297" lon="1.77212">
        <ele>180.19999694824</ele>
        <time>2013-04-30T11:05:00.000Z</time>
      </trkpt>
      <trkpt lat="48.70309" lon="1.77225">
        <ele>179.80000305176</ele>
        <time>2013-04-30T11:05:09.000Z</time>
      </trkpt>
      <trkpt lat="48.70318" lon="1.77235">
        <ele>179.80000305176</ele>
        <time>2013-04-30T11:05:16.000Z</time>
      </trkpt>
      <trkpt lat="48.70328" lon="1.77247">
        <ele>179.80000305176</ele>
        <time>2013-04-30T11:05:24.000Z</time>
      </trkpt>
      <trkpt lat="48.70336" lon="1.77258">
        <ele>180</ele>
        <time>2013-04-30T11:05:31.000Z</time>
      </trkpt>
      <trkpt lat="48.70346" lon="1.77266">
        <ele>180.19999694824</ele>
        <time>2013-04-30T11:05:38.000Z</time>
      </trkpt>
      <trkpt lat="48.70354" lon="1.77274">
        <ele>180.60000610352</ele>
        <time>2013-04-30T11:05:44.000Z</time>
      </trkpt>
      <trkpt lat="48.70362" lon="1.77283">
        <ele>180.80000305176</ele>
        <time>2013-04-30T11:05:51.000Z</time>
      </trkpt>
      <trkpt lat="48.70365" lon="1.77289">
        <ele>181</ele>
        <time>2013-04-30T11:05:54.000Z</time>
      </trkpt>
      <trkpt lat="48.7037" lon="1.77286">
        <ele>181</ele>
        <time>2013-04-30T11:05:59.000Z</time>
      </trkpt>
      <trkpt lat="48.70371" lon="1.77283">
        <ele>181</ele>
        <time>2013-04-30T11:06:01.000Z</time>
      </trkpt>
      <trkpt lat="48.70369" lon="1.77264">
        <ele>180.60000610352</ele>
        <time>2013-04-30T11:06:10.000Z</time>
      </trkpt>
      <trkpt lat="48.70365" lon="1.77244">
        <ele>180.39999389648</ele>
        <time>2013-04-30T11:06:19.000Z</time>
      </trkpt>
      <trkpt lat="48.70364" lon="1.77232">
        <ele>180.39999389648</ele>
        <time>2013-04-30T11:06:25.000Z</time>
      </trkpt>
      <trkpt lat="48.70364" lon="1.77224">
        <ele>180.39999389648</ele>
        <time>2013-04-30T11:06:29.000Z</time>
      </trkpt>
      <trkpt lat="48.70365" lon="1.77219">
        <ele>180.39999389648</ele>
        <time>2013-04-30T11:06:31.000Z</time>
      </trkpt>
      <trkpt lat="48.70363" lon="1.77206">
        <ele>180.60000610352</ele>
        <time>2013-04-30T11:06:37.000Z</time>
      </trkpt>
      <trkpt lat="48.70362" lon="1.77198">
        <ele>180.60000610352</ele>
        <time>2013-04-30T11:06:41.000Z</time>
      </trkpt>
      <trkpt lat="48.70362" lon="1.77191">
        <ele>180.60000610352</ele>
        <time>2013-04-30T11:06:46.000Z</time>
      </trkpt>
      <trkpt lat="48.7036" lon="1.77181">
        <ele>180.80000305176</ele>
        <time>2013-04-30T11:06:50.000Z</time>
      </trkpt>
      <trkpt lat="48.70358" lon="1.77164">
        <ele>181</ele>
        <time>2013-04-30T11:06:57.000Z</time>
      </trkpt>
      <trkpt lat="48.70357" lon="1.7715">
        <ele>181</ele>
        <time>2013-04-30T11:07:04.000Z</time>
      </trkpt>
      <trkpt lat="48.70356" lon="1.77144">
        <ele>181</ele>
        <time>2013-04-30T11:07:09.000Z</time>
      </trkpt>
      <trkpt lat="48.70355" lon="1.77137">
        <ele>181</ele>
        <time>2013-04-30T11:07:12.000Z</time>
      </trkpt>
      <trkpt lat="48.70354" lon="1.77124">
        <ele>181</ele>
        <time>2013-04-30T11:07:17.000Z</time>
      </trkpt>
      <trkpt lat="48.70352" lon="1.77105">
        <ele>181</ele>
        <time>2013-04-30T11:07:25.000Z</time>
      </trkpt>
      <trkpt lat="48.70351" lon="1.77095">
        <ele>181</ele>
        <time>2013-04-30T11:07:30.000Z</time>
      </trkpt>
      <trkpt lat="48.70351" lon="1.7709">
        <ele>181</ele>
        <time>2013-04-30T11:07:32.000Z</time>
      </trkpt>
      <trkpt lat="48.70347" lon="1.77073">
        <ele>181.19999694824</ele>
        <time>2013-04-30T11:07:39.000Z</time>
      </trkpt>
      <trkpt lat="48.70346" lon="1.77059">
        <ele>181.39999389648</ele>
        <time>2013-04-30T11:07:45.000Z</time>
      </trkpt>
      <trkpt lat="48.70343" lon="1.77046">
        <ele>181.39999389648</ele>
        <time>2013-04-30T11:07:51.000Z</time>
      </trkpt>
      <trkpt lat="48.70342" lon="1.77033">
        <ele>181.39999389648</ele>
        <time>2013-04-30T11:07:57.000Z</time>
      </trkpt>
      <trkpt lat="48.70341" lon="1.77012">
        <ele>181.60000610352</ele>
        <time>2013-04-30T11:08:05.000Z</time>
      </trkpt>
      <trkpt lat="48.70341" lon="1.76993">
        <ele>181.39999389648</ele>
        <time>2013-04-30T11:08:13.000Z</time>
      </trkpt>
      <trkpt lat="48.70339" lon="1.76975">
        <ele>181.19999694824</ele>
        <time>2013-04-30T11:08:21.000Z</time>
      </trkpt>
      <trkpt lat="48.70339" lon="1.76959">
        <ele>180.80000305176</ele>
        <time>2013-04-30T11:08:29.000Z</time>
      </trkpt>
      <trkpt lat="48.70339" lon="1.76945">
        <ele>180.60000610352</ele>
        <time>2013-04-30T11:08:36.000Z</time>
      </trkpt>
      <trkpt lat="48.70337" lon="1.76931">
        <ele>180.39999389648</ele>
        <time>2013-04-30T11:08:42.000Z</time>
      </trkpt>
      <trkpt lat="48.70336" lon="1.76916">
        <ele>180</ele>
        <time>2013-04-30T11:08:48.000Z</time>
      </trkpt>
      <trkpt lat="48.70335" lon="1.76897">
        <ele>179.80000305176</ele>
        <time>2013-04-30T11:08:56.000Z</time>
      </trkpt>
      <trkpt lat="48.70334" lon="1.76878">
        <ele>179.39999389648</ele>
        <time>2013-04-30T11:09:04.000Z</time>
      </trkpt>
      <trkpt lat="48.70334" lon="1.76871">
        <ele>179.39999389648</ele>
        <time>2013-04-30T11:09:08.000Z</time>
      </trkpt>
      <trkpt lat="48.70333" lon="1.76849">
        <ele>179</ele>
        <time>2013-04-30T11:09:17.000Z</time>
      </trkpt>
      <trkpt lat="48.70332" lon="1.76821">
        <ele>178.80000305176</ele>
        <time>2013-04-30T11:09:29.000Z</time>
      </trkpt>
      <trkpt lat="48.70331" lon="1.76796">
        <ele>178.39999389648</ele>
        <time>2013-04-30T11:09:40.000Z</time>
      </trkpt>
      <trkpt lat="48.7033" lon="1.76778">
        <ele>178.19999694824</ele>
        <time>2013-04-30T11:09:49.000Z</time>
      </trkpt>
      <trkpt lat="48.70329" lon="1.76759">
        <ele>178</ele>
        <time>2013-04-30T11:09:57.000Z</time>
      </trkpt>
      <trkpt lat="48.70329" lon="1.76742">
        <ele>178</ele>
        <time>2013-04-30T11:10:05.000Z</time>
      </trkpt>
      <trkpt lat="48.7033" lon="1.76726">
        <ele>178</ele>
        <time>2013-04-30T11:10:13.000Z</time>
      </trkpt>
      <trkpt lat="48.70329" lon="1.76714">
        <ele>178</ele>
        <time>2013-04-30T11:10:19.000Z</time>
      </trkpt>
      <trkpt lat="48.70329" lon="1.76711">
        <ele>178</ele>
        <time>2013-04-30T11:10:22.000Z</time>
      </trkpt>
      <trkpt lat="48.70329" lon="1.76704">
        <ele>178</ele>
        <time>2013-04-30T11:10:25.000Z</time>
      </trkpt>
      <trkpt lat="48.70328" lon="1.76691">
        <ele>178</ele>
        <time>2013-04-30T11:10:31.000Z</time>
      </trkpt>
      <trkpt lat="48.70327" lon="1.76672">
        <ele>178</ele>
        <time>2013-04-30T11:10:39.000Z</time>
      </trkpt>
      <trkpt lat="48.70326" lon="1.76661">
        <ele>178.19999694824</ele>
        <time>2013-04-30T11:10:44.000Z</time>
      </trkpt>
      <trkpt lat="48.70328" lon="1.76646">
        <ele>178.19999694824</ele>
        <time>2013-04-30T11:10:51.000Z</time>
      </trkpt>
      <trkpt lat="48.70334" lon="1.76638">
        <ele>178.19999694824</ele>
        <time>2013-04-30T11:10:56.000Z</time>
      </trkpt>
      <trkpt lat="48.70335" lon="1.76637">
        <ele>178.19999694824</ele>
        <time>2013-04-30T11:10:57.000Z</time>
      </trkpt>
      <trkpt lat="48.70346" lon="1.76628">
        <ele>178.60000610352</ele>
        <time>2013-04-30T11:11:06.000Z</time>
      </trkpt>
      <trkpt lat="48.70351" lon="1.76622">
        <ele>178.80000305176</ele>
        <time>2013-04-30T11:11:10.000Z</time>
      </trkpt>
      <trkpt lat="48.70355" lon="1.76617">
        <ele>179</ele>
        <time>2013-04-30T11:11:14.000Z</time>
      </trkpt>
      <trkpt lat="48.70362" lon="1.76615">
        <ele>179.19999694824</ele>
        <time>2013-04-30T11:11:18.000Z</time>
      </trkpt>
      <trkpt lat="48.70372" lon="1.76611">
        <ele>179.39999389648</ele>
        <time>2013-04-30T11:11:25.000Z</time>
      </trkpt>
      <trkpt lat="48.70383" lon="1.76606">
        <ele>179.80000305176</ele>
        <time>2013-04-30T11:11:31.000Z</time>
      </trkpt>
      <trkpt lat="48.70396" lon="1.766">
        <ele>180.19999694824</ele>
        <time>2013-04-30T11:11:40.000Z</time>
      </trkpt>
      <trkpt lat="48.70398" lon="1.76599">
        <ele>180.19999694824</ele>
        <time>2013-04-30T11:11:42.000Z</time>
      </trkpt>
      <trkpt lat="48.70406" lon="1.76594">
        <ele>180.60000610352</ele>
        <time>2013-04-30T11:11:49.000Z</time>
      </trkpt>
      <trkpt lat="48.70417" lon="1.76589">
        <ele>180.80000305176</ele>
        <time>2013-04-30T11:11:57.000Z</time>
      </trkpt>
      <trkpt lat="48.70427" lon="1.76583">
        <ele>180.39999389648</ele>
        <time>2013-04-30T11:12:05.000Z</time>
      </trkpt>
      <trkpt lat="48.70435" lon="1.76573">
        <ele>180</ele>
        <time>2013-04-30T11:12:12.000Z</time>
      </trkpt>
      <trkpt lat="48.70437" lon="1.76568">
        <ele>179.80000305176</ele>
        <time>2013-04-30T11:12:16.000Z</time>
      </trkpt>
      <trkpt lat="48.7044" lon="1.76553">
        <ele>179.60000610352</ele>
        <time>2013-04-30T11:12:23.000Z</time>
      </trkpt>
      <trkpt lat="48.70443" lon="1.76539">
        <ele>179.39999389648</ele>
        <time>2013-04-30T11:12:28.000Z</time>
      </trkpt>
      <trkpt lat="48.70444" lon="1.76525">
        <ele>179.39999389648</ele>
        <time>2013-04-30T11:12:34.000Z</time>
      </trkpt>
      <trkpt lat="48.70445" lon="1.76516">
        <ele>179.19999694824</ele>
        <time>2013-04-30T11:12:37.000Z</time>
      </trkpt>
      <trkpt lat="48.70447" lon="1.76497">
        <ele>179</ele>
        <time>2013-04-30T11:12:43.000Z</time>
      </trkpt>
      <trkpt lat="48.70448" lon="1.76491">
        <ele>178.80000305176</ele>
        <time>2013-04-30T11:12:45.000Z</time>
      </trkpt>
      <trkpt lat="48.70451" lon="1.76475">
        <ele>178.19999694824</ele>
        <time>2013-04-30T11:12:52.000Z</time>
      </trkpt>
      <trkpt lat="48.70452" lon="1.76471">
        <ele>178</ele>
        <time>2013-04-30T11:12:54.000Z</time>
      </trkpt>
      <trkpt lat="48.70454" lon="1.76464">
        <ele>177.80000305176</ele>
        <time>2013-04-30T11:12:57.000Z</time>
      </trkpt>
      <trkpt lat="48.70455" lon="1.7645">
        <ele>177.39999389648</ele>
        <time>2013-04-30T11:13:02.000Z</time>
      </trkpt>
      <trkpt lat="48.70457" lon="1.76436">
        <ele>177</ele>
        <time>2013-04-30T11:13:08.000Z</time>
      </trkpt>
      <trkpt lat="48.70458" lon="1.76428">
        <ele>176.80000305176</ele>
        <time>2013-04-30T11:13:11.000Z</time>
      </trkpt>
      <trkpt lat="48.70457" lon="1.76415">
        <ele>176.39999389648</ele>
        <time>2013-04-30T11:13:16.000Z</time>
      </trkpt>
      <trkpt lat="48.70457" lon="1.7641">
        <ele>176.19999694824</ele>
        <time>2013-04-30T11:13:19.000Z</time>
      </trkpt>
      <trkpt lat="48.70456" lon="1.76397">
        <ele>175.60000610352</ele>
        <time>2013-04-30T11:13:24.000Z</time>
      </trkpt>
      <trkpt lat="48.70455" lon="1.76386">
        <ele>175</ele>
        <time>2013-04-30T11:13:29.000Z</time>
      </trkpt>
      <trkpt lat="48.70454" lon="1.76373">
        <ele>174.39999389648</ele>
        <time>2013-04-30T11:13:34.000Z</time>
      </trkpt>
      <trkpt lat="48.70451" lon="1.76358">
        <ele>173.80000305176</ele>
        <time>2013-04-30T11:13:41.000Z</time>
      </trkpt>
      <trkpt lat="48.70449" lon="1.7634">
        <ele>173</ele>
        <time>2013-04-30T11:13:49.000Z</time>
      </trkpt>
      <trkpt lat="48.70446" lon="1.76323">
        <ele>172.80000305176</ele>
        <time>2013-04-30T11:13:56.000Z</time>
      </trkpt>
      <trkpt lat="48.70445" lon="1.76308">
        <ele>172.80000305176</ele>
        <time>2013-04-30T11:14:02.000Z</time>
      </trkpt>
      <trkpt lat="48.70446" lon="1.76293">
        <ele>172.60000610352</ele>
        <time>2013-04-30T11:14:09.000Z</time>
      </trkpt>
      <trkpt lat="48.70448" lon="1.76279">
        <ele>172.60000610352</ele>
        <time>2013-04-30T11:14:15.000Z</time>
      </trkpt>
      <trkpt lat="48.70449" lon="1.76275">
        <ele>172.39999389648</ele>
        <time>2013-04-30T11:14:17.000Z</time>
      </trkpt>
      <trkpt lat="48.70452" lon="1.76265">
        <ele>172.19999694824</ele>
        <time>2013-04-30T11:14:22.000Z</time>
      </trkpt>
      <trkpt lat="48.70455" lon="1.76255">
        <ele>172.19999694824</ele>
        <time>2013-04-30T11:14:26.000Z</time>
      </trkpt>
      <trkpt lat="48.70457" lon="1.76245">
        <ele>172</ele>
        <time>2013-04-30T11:14:31.000Z</time>
      </trkpt>
      <trkpt lat="48.7046" lon="1.76231">
        <ele>172.19999694824</ele>
        <time>2013-04-30T11:14:38.000Z</time>
      </trkpt>
      <trkpt lat="48.70459" lon="1.76217">
        <ele>172.60000610352</ele>
        <time>2013-04-30T11:14:44.000Z</time>
      </trkpt>
      <trkpt lat="48.70458" lon="1.76212">
        <ele>172.80000305176</ele>
        <time>2013-04-30T11:14:46.000Z</time>
      </trkpt>
      <trkpt lat="48.70455" lon="1.76196">
        <ele>173.39999389648</ele>
        <time>2013-04-30T11:14:53.000Z</time>
      </trkpt>
      <trkpt lat="48.70453" lon="1.76186">
        <ele>173.60000610352</ele>
        <time>2013-04-30T11:14:58.000Z</time>
      </trkpt>
      <trkpt lat="48.7045" lon="1.76168">
        <ele>174.19999694824</ele>
        <time>2013-04-30T11:15:05.000Z</time>
      </trkpt>
      <trkpt lat="48.7045" lon="1.7616">
        <ele>174.39999389648</ele>
        <time>2013-04-30T11:15:08.000Z</time>
      </trkpt>
      <trkpt lat="48.70449" lon="1.76141">
        <ele>174.60000610352</ele>
        <time>2013-04-30T11:15:15.000Z</time>
      </trkpt>
      <trkpt lat="48.7045" lon="1.76139">
        <ele>174.60000610352</ele>
        <time>2013-04-30T11:15:16.000Z</time>
      </trkpt>
      <trkpt lat="48.70452" lon="1.76119">
        <ele>174.80000305176</ele>
        <time>2013-04-30T11:15:25.000Z</time>
      </trkpt>
      <trkpt lat="48.70456" lon="1.76104">
        <ele>174.80000305176</ele>
        <time>2013-04-30T11:15:32.000Z</time>
      </trkpt>
      <trkpt lat="48.70461" lon="1.76091">
        <ele>174.60000610352</ele>
        <time>2013-04-30T11:15:39.000Z</time>
      </trkpt>
      <trkpt lat="48.70464" lon="1.76082">
        <ele>174.60000610352</ele>
        <time>2013-04-30T11:15:44.000Z</time>
      </trkpt>
      <trkpt lat="48.70467" lon="1.76075">
        <ele>175</ele>
        <time>2013-04-30T11:15:48.000Z</time>
      </trkpt>
      <trkpt lat="48.70469" lon="1.76063">
        <ele>175.60000610352</ele>
        <time>2013-04-30T11:15:54.000Z</time>
      </trkpt>
      <trkpt lat="48.70472" lon="1.76053">
        <ele>176</ele>
        <time>2013-04-30T11:16:01.000Z</time>
      </trkpt>
      <trkpt lat="48.70474" lon="1.76039">
        <ele>176.60000610352</ele>
        <time>2013-04-30T11:16:06.000Z</time>
      </trkpt>
      <trkpt lat="48.70475" lon="1.76035">
        <ele>176.80000305176</ele>
        <time>2013-04-30T11:16:08.000Z</time>
      </trkpt>
      <trkpt lat="48.70479" lon="1.76018">
        <ele>177.60000610352</ele>
        <time>2013-04-30T11:16:15.000Z</time>
      </trkpt>
      <trkpt lat="48.70484" lon="1.76">
        <ele>178.39999389648</ele>
        <time>2013-04-30T11:16:23.000Z</time>
      </trkpt>
      <trkpt lat="48.7049" lon="1.75982">
        <ele>179</ele>
        <time>2013-04-30T11:16:30.000Z</time>
      </trkpt>
      <trkpt lat="48.70494" lon="1.75973">
        <ele>179.39999389648</ele>
        <time>2013-04-30T11:16:34.000Z</time>
      </trkpt>
      <trkpt lat="48.70503" lon="1.75958">
        <ele>179.60000610352</ele>
        <time>2013-04-30T11:16:41.000Z</time>
      </trkpt>
      <trkpt lat="48.70512" lon="1.75948">
        <ele>179.60000610352</ele>
        <time>2013-04-30T11:16:49.000Z</time>
      </trkpt>
      <trkpt lat="48.70516" lon="1.75941">
        <ele>179.60000610352</ele>
        <time>2013-04-30T11:16:54.000Z</time>
      </trkpt>
      <trkpt lat="48.70522" lon="1.75932">
        <ele>179.60000610352</ele>
        <time>2013-04-30T11:17:00.000Z</time>
      </trkpt>
      <trkpt lat="48.70524" lon="1.7593">
        <ele>179.60000610352</ele>
        <time>2013-04-30T11:17:02.000Z</time>
      </trkpt>
      <trkpt lat="48.7053" lon="1.75918">
        <ele>179.60000610352</ele>
        <time>2013-04-30T11:17:08.000Z</time>
      </trkpt>
      <trkpt lat="48.70538" lon="1.75899">
        <ele>179.39999389648</ele>
        <time>2013-04-30T11:17:14.000Z</time>
      </trkpt>
      <trkpt lat="48.70539" lon="1.75895">
        <ele>179.39999389648</ele>
        <time>2013-04-30T11:17:15.000Z</time>
      </trkpt>
      <trkpt lat="48.70545" lon="1.75884">
        <ele>179</ele>
        <time>2013-04-30T11:17:20.000Z</time>
      </trkpt>
      <trkpt lat="48.70548" lon="1.75875">
        <ele>178.80000305176</ele>
        <time>2013-04-30T11:17:23.000Z</time>
      </trkpt>
      <trkpt lat="48.70553" lon="1.75864">
        <ele>178.60000610352</ele>
        <time>2013-04-30T11:17:28.000Z</time>
      </trkpt>
      <trkpt lat="48.70557" lon="1.75853">
        <ele>178.19999694824</ele>
        <time>2013-04-30T11:17:33.000Z</time>
      </trkpt>
      <trkpt lat="48.70558" lon="1.75851">
        <ele>178.19999694824</ele>
        <time>2013-04-30T11:17:34.000Z</time>
      </trkpt>
      <trkpt lat="48.7056" lon="1.75843">
        <ele>178</ele>
        <time>2013-04-30T11:17:37.000Z</time>
      </trkpt>
      <trkpt lat="48.70565" lon="1.75829">
        <ele>177.80000305176</ele>
        <time>2013-04-30T11:17:44.000Z</time>
      </trkpt>
      <trkpt lat="48.70568" lon="1.75823">
        <ele>177.60000610352</ele>
        <time>2013-04-30T11:17:47.000Z</time>
      </trkpt>
      <trkpt lat="48.70574" lon="1.75815">
        <ele>177.39999389648</ele>
        <time>2013-04-30T11:17:52.000Z</time>
      </trkpt>
      <trkpt lat="48.70577" lon="1.75806">
        <ele>177.39999389648</ele>
        <time>2013-04-30T11:17:56.000Z</time>
      </trkpt>
      <trkpt lat="48.70585" lon="1.75794">
        <ele>177.19999694824</ele>
        <time>2013-04-30T11:18:03.000Z</time>
      </trkpt>
      <trkpt lat="48.70586" lon="1.75792">
        <ele>177.19999694824</ele>
        <time>2013-04-30T11:18:04.000Z</time>
      </trkpt>
      <trkpt lat="48.7059" lon="1.75783">
        <ele>177.39999389648</ele>
        <time>2013-04-30T11:18:09.000Z</time>
      </trkpt>
      <trkpt lat="48.70593" lon="1.75779">
        <ele>177.39999389648</ele>
        <time>2013-04-30T11:18:11.000Z</time>
      </trkpt>
      <trkpt lat="48.70602" lon="1.75764">
        <ele>177.19999694824</ele>
        <time>2013-04-30T11:18:18.000Z</time>
      </trkpt>
      <trkpt lat="48.7061" lon="1.75753">
        <ele>177.19999694824</ele>
        <time>2013-04-30T11:18:24.000Z</time>
      </trkpt>
      <trkpt lat="48.70614" lon="1.75743">
        <ele>177.39999389648</ele>
        <time>2013-04-30T11:18:28.000Z</time>
      </trkpt>
      <trkpt lat="48.70617" lon="1.75737">
        <ele>177.39999389648</ele>
        <time>2013-04-30T11:18:31.000Z</time>
      </trkpt>
      <trkpt lat="48.70623" lon="1.75729">
        <ele>177.39999389648</ele>
        <time>2013-04-30T11:18:36.000Z</time>
      </trkpt>
      <trkpt lat="48.70631" lon="1.75715">
        <ele>177.39999389648</ele>
        <time>2013-04-30T11:18:44.000Z</time>
      </trkpt>
      <trkpt lat="48.70633" lon="1.75714">
        <ele>177.19999694824</ele>
        <time>2013-04-30T11:18:45.000Z</time>
      </trkpt>
      <trkpt lat="48.70634" lon="1.75706">
        <ele>177.39999389648</ele>
        <time>2013-04-30T11:18:51.000Z</time>
      </trkpt>
      <trkpt lat="48.70637" lon="1.75703">
        <ele>177.19999694824</ele>
        <time>2013-04-30T11:19:45.000Z</time>
      </trkpt>
      <trkpt lat="48.70635" lon="1.75706">
        <ele>177.39999389648</ele>
        <time>2013-04-30T11:19:49.000Z</time>
      </trkpt>
      <trkpt lat="48.70635" lon="1.75706">
        <ele>177.39999389648</ele>
        <time>2013-04-30T11:19:50.000Z</time>
      </trkpt>
      <trkpt lat="48.70643" lon="1.75691">
        <ele>177</ele>
        <time>2013-04-30T11:21:04.000Z</time>
      </trkpt>
      <trkpt lat="48.70642" lon="1.75681">
        <ele>177.39999389648</ele>
        <time>2013-04-30T11:21:08.000Z</time>
      </trkpt>
      <trkpt lat="48.70641" lon="1.75676">
        <ele>177.80000305176</ele>
        <time>2013-04-30T11:21:11.000Z</time>
      </trkpt>
      <trkpt lat="48.70641" lon="1.75668">
        <ele>178</ele>
        <time>2013-04-30T11:21:15.000Z</time>
      </trkpt>
      <trkpt lat="48.70641" lon="1.75652">
        <ele>178</ele>
        <time>2013-04-30T11:21:22.000Z</time>
      </trkpt>
      <trkpt lat="48.7064" lon="1.75648">
        <ele>178</ele>
        <time>2013-04-30T11:21:24.000Z</time>
      </trkpt>
      <trkpt lat="48.70641" lon="1.75637">
        <ele>177.80000305176</ele>
        <time>2013-04-30T11:21:29.000Z</time>
      </trkpt>
      <trkpt lat="48.70644" lon="1.7563">
        <ele>177.39999389648</ele>
        <time>2013-04-30T11:21:33.000Z</time>
      </trkpt>
      <trkpt lat="48.70643" lon="1.75627">
        <ele>177.39999389648</ele>
        <time>2013-04-30T11:21:37.000Z</time>
      </trkpt>
      <trkpt lat="48.70645" lon="1.75619">
        <ele>177.19999694824</ele>
        <time>2013-04-30T11:21:53.000Z</time>
      </trkpt>
      <trkpt lat="48.70651" lon="1.75609">
        <ele>176.60000610352</ele>
        <time>2013-04-30T11:21:58.000Z</time>
      </trkpt>
      <trkpt lat="48.70652" lon="1.75607">
        <ele>176.39999389648</ele>
        <time>2013-04-30T11:21:59.000Z</time>
      </trkpt>
      <trkpt lat="48.70658" lon="1.75593">
        <ele>175.80000305176</ele>
        <time>2013-04-30T11:22:06.000Z</time>
      </trkpt>
      <trkpt lat="48.70662" lon="1.75584">
        <ele>175.39999389648</ele>
        <time>2013-04-30T11:22:11.000Z</time>
      </trkpt>
      <trkpt lat="48.70666" lon="1.75575">
        <ele>174.80000305176</ele>
        <time>2013-04-30T11:22:17.000Z</time>
      </trkpt>
      <trkpt lat="48.70667" lon="1.75573">
        <ele>174.60000610352</ele>
        <time>2013-04-30T11:22:18.000Z</time>
      </trkpt>
      <trkpt lat="48.70672" lon="1.75566">
        <ele>174.39999389648</ele>
        <time>2013-04-30T11:22:23.000Z</time>
      </trkpt>
      <trkpt lat="48.70677" lon="1.75554">
        <ele>173.80000305176</ele>
        <time>2013-04-30T11:22:30.000Z</time>
      </trkpt>
      <trkpt lat="48.70681" lon="1.75545">
        <ele>173.60000610352</ele>
        <time>2013-04-30T11:22:35.000Z</time>
      </trkpt>
      <trkpt lat="48.70685" lon="1.75536">
        <ele>173.19999694824</ele>
        <time>2013-04-30T11:22:41.000Z</time>
      </trkpt>
      <trkpt lat="48.70691" lon="1.75523">
        <ele>172.80000305176</ele>
        <time>2013-04-30T11:22:48.000Z</time>
      </trkpt>
      <trkpt lat="48.70691" lon="1.75521">
        <ele>172.80000305176</ele>
        <time>2013-04-30T11:22:49.000Z</time>
      </trkpt>
      <trkpt lat="48.70691" lon="1.75519">
        <ele>172.80000305176</ele>
        <time>2013-04-30T11:22:52.000Z</time>
      </trkpt>
    </trkseg>
  </trk>
</gpx>